Observation data for Lesley on 03/12/2018      Previous  Date  Next       Current Mesonet Observations  Soil Data  Daily Summary Page  Observations in Plain Language
KLE1 120500Z 02007KT 04/M06 A3036 RMK A01 T00411060  RH  048%=      5-min Rain = 0
KLE1 120501Z 02007KT 04/M06 A3036 RMK A01 T00411060  RH  048%=      5-min Rain = 0
KLE1 120502Z 02007KT 04/M06 A3036 RMK A01 T00411060  RH  048%=      5-min Rain = 0
KLE1 120503Z 02007KT 04/M06 A3036 RMK A01 T00401061  RH  048%=      5-min Rain = 0
KLE1 120504Z 02007KT 04/M06 A3036 RMK A01 T00401061  RH  048%=      5-min Rain = 0
KLE1 120505Z 02006KT 04/M06 A3036 RMK A01 T00401061  RH  048%=      5-min Rain = 0
KLE1 120506Z 02006KT 04/M06 A3036 RMK A01 T00391061  RH  048%=      5-min Rain = 0
KLE1 120507Z 02006KT 04/M06 A3036 RMK A01 T00391061  RH  048%=      5-min Rain = 0
KLE1 120508Z 02006KT 04/M06 A3036 RMK A01 T00391061  RH  048%=      5-min Rain = 0
KLE1 120509Z 02005KT 04/M06 A3036 RMK A01 T00391062  RH  048%=      5-min Rain = 0
KLE1 120510Z 02006KT 04/M06 A3036 RMK A01 T00381062  RH  048%=      5-min Rain = 0
KLE1 120511Z 02006KT 04/M06 A3036 RMK A01 T00381062  RH  048%=      5-min Rain = 0
KLE1 120512Z 02005KT 04/M06 A3036 RMK A01 T00381062  RH  048%=      5-min Rain = 0
KLE1 120513Z 01005KT 04/M06 A3036 RMK A01 T00381062  RH  048%=      5-min Rain = 0
KLE1 120514Z 01005KT 04/M06 A3036 RMK A01 T00381062  RH  048%=      5-min Rain = 0
KLE1 120515Z 01005KT 04/M06 A3036 RMK A01 T00381062  RH  048%=      5-min Rain = 0
KLE1 120516Z 00005KT 04/M06 A3036 RMK A01 T00381062  RH  048%=      5-min Rain = 0
KLE1 120517Z 36004KT 04/M06 A3036 RMK A01 T00371063  RH  048%=      5-min Rain = 0
KLE1 120518Z 35004KT 04/M06 A3036 RMK A01 T00371064  RH  048%=      5-min Rain = 0
KLE1 120519Z 34004KT 04/M07 A3036 RMK A01 T00361066  RH  047%=      5-min Rain = 0
KLE1 120520Z 34003KT 04/M07 A3036 RMK A01 T00351066  RH  048%=      5-min Rain = 0
KLE1 120521Z 34003KT 03/M07 A3036 RMK A01 T00341066  RH  048%=      5-min Rain = 0
KLE1 120522Z 33003KT 03/M07 A3036 RMK A01 T00331065  RH  049%=      5-min Rain = 0
KLE1 120523Z 33003KT 03/M06 A3036 RMK A01 T00331063  RH  049%=      5-min Rain = 0
KLE1 120524Z 33003KT 03/M06 A3036 RMK A01 T00331063  RH  049%=      5-min Rain = 0
KLE1 120525Z 32003KT 03/M06 A3036 RMK A01 T00341064  RH  049%=      5-min Rain = 0
KLE1 120526Z 32002KT 04/M06 A3036 RMK A01 T00351064  RH  048%=      5-min Rain = 0
KLE1 120527Z 32002KT 04/M06 A3036 RMK A01 T00351064  RH  048%=      5-min Rain = 0
KLE1 120528Z 32002KT 04/M06 A3036 RMK A01 T00361063  RH  048%=      5-min Rain = 0
KLE1 120529Z 32003KT 04/M06 A3036 RMK A01 T00361061  RH  049%=      5-min Rain = 0
KLE1 120530Z 32003KT 04/M06 A3036 RMK A01 T00371058  RH  050%=      5-min Rain = 0
KLE1 120531Z 32003KT 04/M06 A3036 RMK A01 T00371057  RH  050%=      5-min Rain = 0
KLE1 120532Z 33003KT 04/M06 A3036 RMK A01 T00371057  RH  050%=      5-min Rain = 0
KLE1 120533Z 33003KT 04/M06 A3036 RMK A01 T00381057  RH  050%=      5-min Rain = 0
KLE1 120534Z 34003KT 04/M06 A3037 RMK A01 T00391057  RH  050%=      5-min Rain = 0
KLE1 120535Z 33003KT 04/M06 A3037 RMK A01 T00391057  RH  049%=      5-min Rain = 0
KLE1 120536Z 33003KT 04/M06 A3037 RMK A01 T00401057  RH  049%=      5-min Rain = 0
KLE1 120537Z 33003KT 04/M06 A3037 RMK A01 T00411057  RH  049%=      5-min Rain = 0
KLE1 120538Z 33003KT 04/M06 A3037 RMK A01 T00421056  RH  049%=      5-min Rain = 0
KLE1 120539Z 33003KT 04/M06 A3037 RMK A01 T00431056  RH  048%=      5-min Rain = 0
KLE1 120540Z 34003KT 04/M06 A3037 RMK A01 T00441056  RH  048%=      5-min Rain = 0
KLE1 120541Z 34003KT 05/M06 A3037 RMK A01 T00451056  RH  048%=      5-min Rain = 0
KLE1 120542Z 34003KT 05/M06 A3037 RMK A01 T00451056  RH  048%=      5-min Rain = 0
KLE1 120543Z 34003KT 05/M06 A3037 RMK A01 T00461055  RH  048%=      5-min Rain = 0
KLE1 120544Z 34003KT 05/M06 A3037 RMK A01 T00461055  RH  048%=      5-min Rain = 0
KLE1 120545Z 34003KT 05/M06 A3037 RMK A01 T00471055  RH  048%=      5-min Rain = 0
KLE1 120546Z 34003KT 05/M06 A3036 RMK A01 T00471055  RH  047%=      5-min Rain = 0
KLE1 120547Z 35003KT 05/M06 A3036 RMK A01 T00481056  RH  047%=      5-min Rain = 0
KLE1 120548Z 35003KT 05/M06 A3036 RMK A01 T00481056  RH  047%=      5-min Rain = 0
KLE1 120549Z 34003KT 05/M06 A3037 RMK A01 T00481056  RH  047%=      5-min Rain = 0
KLE1 120550Z 34003KT 05/M06 A3037 RMK A01 T00481056  RH  047%=      5-min Rain = 0
KLE1 120551Z 35003KT 05/M06 A3037 RMK A01 T00481055  RH  047%=      5-min Rain = 0
KLE1 120552Z 34003KT 05/M06 A3037 RMK A01 T00481056  RH  047%=      5-min Rain = 0
KLE1 120553Z 35003KT 05/M06 A3037 RMK A01 T00481055  RH  047%=      5-min Rain = 0
KLE1 120554Z 35003KT 05/M05 A3037 RMK A01 T00491054  RH  047%=      5-min Rain = 0
KLE1 120555Z 35003KT 05/M05 A3037 RMK A01 T00491054  RH  047%=      5-min Rain = 0
KLE1 120556Z 35003KT 05/M05 A3037 RMK A01 T00491054  RH  047%=      5-min Rain = 0
KLE1 120557Z 35003KT 05/M06 A3037 RMK A01 T00491055  RH  047%=      5-min Rain = 0
KLE1 120558Z 35003KT 05/M05 A3037 RMK A01 T00491054  RH  047%=      5-min Rain = 0
KLE1 120559Z 35003KT 05/M06 A3037 RMK A01 T00491055  RH  047%=      5-min Rain = 0
KLE1 120600Z 35003KT 05/M06 A3036 RMK A01 T00491055  RH  047%=      5-min Rain = 0
KLE1 120601Z 35003KT 05/M06 A3036 RMK A01 T00481055  RH  047%=      5-min Rain = 0
KLE1 120602Z 34003KT 05/M06 A3036 RMK A01 T00481056  RH  047%=      5-min Rain = 0
KLE1 120603Z 32003KT 05/M06 A3036 RMK A01 T00471056  RH  047%=      5-min Rain = 0
KLE1 120604Z 31002KT 05/M06 A3036 RMK A01 T00471057  RH  047%=      5-min Rain = 0
KLE1 120605Z 29002KT 05/M06 A3036 RMK A01 T00461058  RH  047%=      5-min Rain = 0
KLE1 120606Z 29002KT 04/M06 A3037 RMK A01 T00431063  RH  046%=      5-min Rain = 0
KLE1 120607Z 28002KT 04/M07 A3037 RMK A01 T00371071  RH  045%=      5-min Rain = 0
KLE1 120608Z 27002KT 03/M07 A3037 RMK A01 T00321073  RH  046%=      5-min Rain = 0
KLE1 120609Z 27003KT 03/M07 A3037 RMK A01 T00291070  RH  048%=      5-min Rain = 0
KLE1 120610Z 27003KT 03/M07 A3037 RMK A01 T00281067  RH  050%=      5-min Rain = 0
KLE1 120611Z 28003KT 03/M07 A3037 RMK A01 T00261066  RH  051%=      5-min Rain = 0
KLE1 120612Z 29004KT 03/M07 A3037 RMK A01 T00261066  RH  051%=      5-min Rain = 0
KLE1 120613Z 28004KT 03/M07 A3036 RMK A01 T00251066  RH  051%=      5-min Rain = 0
KLE1 120614Z 28003KT 02/M07 A3036 RMK A01 T00241065  RH  052%=      5-min Rain = 0
KLE1 120615Z 28003KT 02/M06 A3036 RMK A01 T00241062  RH  053%=      5-min Rain = 0
KLE1 120616Z 27003KT 03/M06 A3037 RMK A01 T00251062  RH  053%=      5-min Rain = 0
KLE1 120617Z 26003KT 02/M07 A3037 RMK A01 T00231069  RH  051%=      5-min Rain = 0
KLE1 120618Z 26003KT 02/M07 A3037 RMK A01 T00181074  RH  050%=      5-min Rain = 0
KLE1 120619Z 26004KT 02/M08 A3037 RMK A01 T00151075  RH  051%=      5-min Rain = 0
KLE1 120620Z 26004KT 01/M07 A3037 RMK A01 T00141074  RH  052%=      5-min Rain = 0
KLE1 120621Z 27003KT 01/M07 A3037 RMK A01 T00141072  RH  053%=      5-min Rain = 0
KLE1 120622Z 27003KT 01/M07 A3037 RMK A01 T00141072  RH  053%=      5-min Rain = 0
KLE1 120623Z 27003KT 01/M07 A3037 RMK A01 T00141072  RH  053%=      5-min Rain = 0
KLE1 120624Z 28003KT 02/M07 A3037 RMK A01 T00151072  RH  052%=      5-min Rain = 0
KLE1 120625Z 28004KT 02/M07 A3037 RMK A01 T00161071  RH  052%=      5-min Rain = 0
KLE1 120626Z 28003KT 02/M07 A3037 RMK A01 T00181071  RH  052%=      5-min Rain = 0
KLE1 120627Z 29003KT 02/M07 A3037 RMK A01 T00191070  RH  052%=      5-min Rain = 0
KLE1 120628Z 29004KT 02/M07 A3037 RMK A01 T00201070  RH  051%=      5-min Rain = 0
KLE1 120629Z 29004KT 02/M07 A3037 RMK A01 T00201070  RH  051%=      5-min Rain = 0
KLE1 120630Z 30004KT 02/M07 A3037 RMK A01 T00211070  RH  051%=      5-min Rain = 0
KLE1 120631Z 29004KT 02/M07 A3037 RMK A01 T00211069  RH  052%=      5-min Rain = 0
KLE1 120632Z 30004KT 02/M07 A3037 RMK A01 T00211068  RH  052%=      5-min Rain = 0
KLE1 120633Z 30004KT 02/M07 A3037 RMK A01 T00221067  RH  052%=      5-min Rain = 0
KLE1 120634Z 31004KT 02/M07 A3037 RMK A01 T00221066  RH  052%=      5-min Rain = 0
KLE1 120635Z 31004KT 02/M07 A3037 RMK A01 T00231065  RH  052%=      5-min Rain = 0
KLE1 120636Z 31004KT 02/M06 A3037 RMK A01 T00241064  RH  052%=      5-min Rain = 0
KLE1 120637Z 31004KT 02/M06 A3037 RMK A01 T00241064  RH  052%=      5-min Rain = 0
KLE1 120638Z 30004KT 03/M06 A3037 RMK A01 T00251063  RH  052%=      5-min Rain = 0
KLE1 120639Z 31004KT 03/M06 A3037 RMK A01 T00261062  RH  052%=      5-min Rain = 0
KLE1 120640Z 31004KT 03/M06 A3037 RMK A01 T00271061  RH  052%=      5-min Rain = 0
KLE1 120641Z 31004KT 03/M06 A3037 RMK A01 T00271059  RH  053%=      5-min Rain = 0
KLE1 120642Z 31004KT 03/M06 A3037 RMK A01 T00271058  RH  054%=      5-min Rain = 0
KLE1 120643Z 31005KT 03/M06 A3037 RMK A01 T00271055  RH  055%=      5-min Rain = 0
KLE1 120644Z 30004KT 03/M06 A3037 RMK A01 T00271055  RH  055%=      5-min Rain = 0
KLE1 120645Z 30004KT 03/M06 A3037 RMK A01 T00271056  RH  054%=      5-min Rain = 0
KLE1 120646Z 31004KT 03/M06 A3037 RMK A01 T00271057  RH  054%=      5-min Rain = 0
KLE1 120647Z 30004KT 03/M06 A3037 RMK A01 T00271058  RH  053%=      5-min Rain = 0
KLE1 120648Z 30004KT 03/M06 A3037 RMK A01 T00281059  RH  053%=      5-min Rain = 0
KLE1 120649Z 30004KT 03/M06 A3037 RMK A01 T00271060  RH  053%=      5-min Rain = 0
KLE1 120650Z 30004KT 03/M06 A3037 RMK A01 T00261061  RH  053%=      5-min Rain = 0
KLE1 120651Z 31005KT 02/M06 A3037 RMK A01 T00241062  RH  053%=      5-min Rain = 0
KLE1 120652Z 30005KT 02/M06 A3037 RMK A01 T00231062  RH  053%=      5-min Rain = 0
KLE1 120653Z 30005KT 02/M06 A3037 RMK A01 T00241061  RH  053%=      5-min Rain = 0
KLE1 120654Z 30004KT 03/M06 A3037 RMK A01 T00261061  RH  053%=      5-min Rain = 0
KLE1 120655Z 30004KT 03/M06 A3037 RMK A01 T00261062  RH  052%=      5-min Rain = 0
KLE1 120656Z 29004KT 02/M07 A3037 RMK A01 T00241065  RH  052%=      5-min Rain = 0
KLE1 120657Z 29005KT 02/M07 A3037 RMK A01 T00211068  RH  052%=      5-min Rain = 0
KLE1 120658Z 29005KT 02/M07 A3037 RMK A01 T00191067  RH  053%=      5-min Rain = 0
KLE1 120659Z 30005KT 02/M07 A3037 RMK A01 T00191065  RH  054%=      5-min Rain = 0
KLE1 120700Z 29005KT 02/M07 A3037 RMK A01 T00201065  RH  054%=      5-min Rain = 0
KLE1 120701Z 30005KT 02/M06 A3037 RMK A01 T00191064  RH  054%=      5-min Rain = 0
KLE1 120702Z 31005KT 02/M06 A3037 RMK A01 T00191064  RH  054%=      5-min Rain = 0
KLE1 120703Z 31005KT 02/M06 A3037 RMK A01 T00191064  RH  054%=      5-min Rain = 0
KLE1 120704Z 30005KT 02/M06 A3037 RMK A01 T00191063  RH  055%=      5-min Rain = 0
KLE1 120705Z 31005KT 02/M06 A3037 RMK A01 T00201060  RH  055%=      5-min Rain = 0
KLE1 120706Z 31005KT 02/M06 A3037 RMK A01 T00211061  RH  054%=      5-min Rain = 0
KLE1 120707Z 31005KT 02/M06 A3037 RMK A01 T00211060  RH  055%=      5-min Rain = 0
KLE1 120708Z 31005KT 02/M06 A3037 RMK A01 T00211060  RH  055%=      5-min Rain = 0
KLE1 120709Z 32005KT 02/M06 A3038 RMK A01 T00211060  RH  055%=      5-min Rain = 0
KLE1 120710Z 32005KT 02/M06 A3038 RMK A01 T00201060  RH  055%=      5-min Rain = 0
KLE1 120711Z 31006KT 02/M06 A3038 RMK A01 T00211060  RH  055%=      5-min Rain = 0
KLE1 120712Z 32005KT 02/M06 A3038 RMK A01 T00211060  RH  055%=      5-min Rain = 0
KLE1 120713Z 32005KT 02/M06 A3038 RMK A01 T00201061  RH  055%=      5-min Rain = 0
KLE1 120714Z 32006KT 02/M06 A3038 RMK A01 T00211061  RH  055%=      5-min Rain = 0
KLE1 120715Z 32006KT 02/M06 A3038 RMK A01 T00211061  RH  054%=      5-min Rain = 0
KLE1 120716Z 33006KT 02/M06 A3038 RMK A01 T00211062  RH  054%=      5-min Rain = 0
KLE1 120717Z 32007KT 02/M06 A3038 RMK A01 T00221061  RH  054%=      5-min Rain = 0
KLE1 120718Z 32006KT 02/M06 A3038 RMK A01 T00231061  RH  054%=      5-min Rain = 0
KLE1 120719Z 32006KT 02/M06 A3038 RMK A01 T00241062  RH  053%=      5-min Rain = 0
KLE1 120720Z 33006KT 02/M06 A3038 RMK A01 T00241062  RH  053%=      5-min Rain = 0
KLE1 120721Z 33007KT 02/M06 A3038 RMK A01 T00231063  RH  053%=      5-min Rain = 0
KLE1 120722Z 33007KT 02/M06 A3038 RMK A01 T00221063  RH  053%=      5-min Rain = 0
KLE1 120723Z 33007KT 02/M06 A3038 RMK A01 T00221063  RH  053%=      5-min Rain = 0
KLE1 120724Z 33007KT 02/M06 A3038 RMK A01 T00221063  RH  053%=      5-min Rain = 0
KLE1 120725Z 34007KT 02/M06 A3038 RMK A01 T00221063  RH  054%=      5-min Rain = 0
KLE1 120726Z 34007KT 02/M06 A3038 RMK A01 T00211063  RH  054%=      5-min Rain = 0
KLE1 120727Z 34008KT 02/M06 A3038 RMK A01 T00211064  RH  054%=      5-min Rain = 0
KLE1 120728Z 34008KT 02/M06 A3038 RMK A01 T00201064  RH  054%=      5-min Rain = 0
KLE1 120729Z 34008KT 02/M06 A3038 RMK A01 T00191064  RH  054%=      5-min Rain = 0
KLE1 120730Z 34008KT 02/M06 A3038 RMK A01 T00181064  RH  054%=      5-min Rain = 0
KLE1 120731Z 34008KT 02/M06 A3038 RMK A01 T00171064  RH  055%=      5-min Rain = 0
KLE1 120732Z 34008KT 02/M06 A3038 RMK A01 T00171063  RH  055%=      5-min Rain = 0
KLE1 120733Z 34008KT 02/M06 A3038 RMK A01 T00161063  RH  056%=      5-min Rain = 0
KLE1 120734Z 34008KT 02/M06 A3038 RMK A01 T00161063  RH  056%=      5-min Rain = 0
KLE1 120735Z 34008KT 02/M06 A3038 RMK A01 T00161062  RH  056%=      5-min Rain = 0
KLE1 120736Z 35007KT 02/M06 A3038 RMK A01 T00161062  RH  056%=      5-min Rain = 0
KLE1 120737Z 35007KT 02/M06 A3038 RMK A01 T00161061  RH  056%=      5-min Rain = 0
KLE1 120738Z 35007KT 02/M06 A3038 RMK A01 T00151061  RH  057%=      5-min Rain = 0
KLE1 120739Z 35007KT 01/M06 A3038 RMK A01 T00141062  RH  057%=      5-min Rain = 0
KLE1 120740Z 36007KT 01/M06 A3038 RMK A01 T00131062  RH  057%=      5-min Rain = 0
KLE1 120741Z 00007KT 01/M06 A3038 RMK A01 T00131060  RH  058%=      5-min Rain = 0
KLE1 120742Z 00007KT 01/M06 A3038 RMK A01 T00141059  RH  058%=      5-min Rain = 0
KLE1 120743Z 00008KT 02/M06 A3038 RMK A01 T00161059  RH  058%=      5-min Rain = 0
KLE1 120744Z 36008KT 02/M06 A3038 RMK A01 T00171058  RH  057%=      5-min Rain = 0
KLE1 120745Z 36008KT 02/M06 A3038 RMK A01 T00181059  RH  057%=      5-min Rain = 0
KLE1 120746Z 00009KT 02/M06 A3038 RMK A01 T00181058  RH  057%=      5-min Rain = 0
KLE1 120747Z 00009KT 02/M06 A3038 RMK A01 T00191058  RH  057%=      5-min Rain = 0
KLE1 120748Z 00009KT 02/M06 A3038 RMK A01 T00201057  RH  057%=      5-min Rain = 0
KLE1 120749Z 00009KT 02/M06 A3038 RMK A01 T00201057  RH  057%=      5-min Rain = 0
KLE1 120750Z 00009KT 02/M06 A3038 RMK A01 T00211057  RH  057%=      5-min Rain = 0
KLE1 120751Z 00009KT 02/M06 A3038 RMK A01 T00211057  RH  056%=      5-min Rain = 0
KLE1 120752Z 00009KT 02/M06 A3038 RMK A01 T00221057  RH  056%=      5-min Rain = 0
KLE1 120753Z 00009KT 02/M06 A3038 RMK A01 T00211057  RH  056%=      5-min Rain = 0
KLE1 120754Z 00009KT 02/M06 A3038 RMK A01 T00221057  RH  056%=      5-min Rain = 0
KLE1 120755Z 00009KT 02/M06 A3038 RMK A01 T00211057  RH  056%=      5-min Rain = 0
KLE1 120756Z 00009KT 02/M06 A3038 RMK A01 T00201058  RH  056%=      5-min Rain = 0
KLE1 120757Z 00009KT 02/M06 A3038 RMK A01 T00201058  RH  056%=      5-min Rain = 0
KLE1 120758Z 00009KT 02/M06 A3038 RMK A01 T00191058  RH  056%=      5-min Rain = 0
KLE1 120759Z 00009KT 02/M06 A3038 RMK A01 T00191058  RH  056%=      5-min Rain = 0
KLE1 120800Z 00009KT 02/M06 A3038 RMK A01 T00181059  RH  057%=      5-min Rain = 0
KLE1 120801Z 00009KT 02/M06 A3038 RMK A01 T00181059  RH  057%=      5-min Rain = 0
KLE1 120802Z 00009KT 02/M06 A3038 RMK A01 T00171060  RH  057%=      5-min Rain = 0
KLE1 120803Z 00009KT 02/M06 A3038 RMK A01 T00171060  RH  057%=      5-min Rain = 0
KLE1 120804Z 00009KT 02/M06 A3038 RMK A01 T00161060  RH  057%=      5-min Rain = 0
KLE1 120805Z 00009KT 02/M06 A3038 RMK A01 T00161060  RH  057%=      5-min Rain = 0
KLE1 120806Z 00009KT 02/M06 A3038 RMK A01 T00151059  RH  058%=      5-min Rain = 0
KLE1 120807Z 00009KT 02/M06 A3038 RMK A01 T00151059  RH  058%=      5-min Rain = 0
KLE1 120808Z 00009KT 02/M06 A3038 RMK A01 T00151059  RH  058%=      5-min Rain = 0
KLE1 120809Z 00009KT 02/M06 A3038 RMK A01 T00151059  RH  058%=      5-min Rain = 0
KLE1 120810Z 00009KT 01/M06 A3038 RMK A01 T00141059  RH  058%=      5-min Rain = 0
KLE1 120811Z 00009KT 01/M06 A3038 RMK A01 T00141059  RH  058%=      5-min Rain = 0
KLE1 120812Z 00009KT 01/M06 A3038 RMK A01 T00141059  RH  059%=      5-min Rain = 0
KLE1 120813Z 00009KT 01/M06 A3038 RMK A01 T00141058  RH  059%=      5-min Rain = 0
KLE1 120814Z 00009KT 01/M06 A3038 RMK A01 T00141058  RH  059%=      5-min Rain = 0
KLE1 120815Z 00010KT 02/M06 A3037 RMK A01 T00151057  RH  059%=      5-min Rain = 0
KLE1 120816Z 01009KT 02/M06 A3037 RMK A01 T00151057  RH  059%=      5-min Rain = 0
KLE1 120817Z 01009KT 02/M06 A3037 RMK A01 T00161057  RH  059%=      5-min Rain = 0
KLE1 120818Z 01009KT 02/M06 A3037 RMK A01 T00151057  RH  059%=      5-min Rain = 0
KLE1 120819Z 01009KT 02/M06 A3037 RMK A01 T00161056  RH  059%=      5-min Rain = 0
KLE1 120820Z 01008KT 02/M06 A3037 RMK A01 T00171056  RH  058%=      5-min Rain = 0
KLE1 120821Z 01008KT 02/M06 A3037 RMK A01 T00171056  RH  058%=      5-min Rain = 0
KLE1 120822Z 01008KT 02/M06 A3037 RMK A01 T00171056  RH  058%=      5-min Rain = 0
KLE1 120823Z 00008KT 02/M06 A3037 RMK A01 T00171056  RH  058%=      5-min Rain = 0
KLE1 120824Z 00008KT 02/M06 A3037 RMK A01 T00171056  RH  058%=      5-min Rain = 0
KLE1 120825Z 00007KT 02/M06 A3037 RMK A01 T00171056  RH  058%=      5-min Rain = 0
KLE1 120826Z 00007KT 02/M06 A3037 RMK A01 T00171056  RH  058%=      5-min Rain = 0
KLE1 120827Z 00007KT 02/M06 A3037 RMK A01 T00161057  RH  058%=      5-min Rain = 0
KLE1 120828Z 00007KT 02/M06 A3037 RMK A01 T00151057  RH  059%=      5-min Rain = 0
KLE1 120829Z 00007KT 02/M06 A3037 RMK A01 T00151057  RH  059%=      5-min Rain = 0
KLE1 120830Z 00007KT 01/M06 A3037 RMK A01 T00141057  RH  059%=      5-min Rain = 0
KLE1 120831Z 00007KT 01/M06 A3037 RMK A01 T00141058  RH  059%=      5-min Rain = 0
KLE1 120832Z 00007KT 01/M06 A3037 RMK A01 T00141057  RH  059%=      5-min Rain = 0
KLE1 120833Z 00007KT 01/M06 A3037 RMK A01 T00131057  RH  059%=      5-min Rain = 0
KLE1 120834Z 00007KT 01/M06 A3037 RMK A01 T00131057  RH  060%=      5-min Rain = 0
KLE1 120835Z 00007KT 01/M06 A3037 RMK A01 T00131057  RH  060%=      5-min Rain = 0
KLE1 120836Z 00007KT 01/M06 A3037 RMK A01 T00121058  RH  060%=      5-min Rain = 0
KLE1 120837Z 00007KT 01/M06 A3037 RMK A01 T00111058  RH  060%=      5-min Rain = 0
KLE1 120838Z 00007KT 01/M06 A3037 RMK A01 T00111058  RH  060%=      5-min Rain = 0
KLE1 120839Z 01007KT 01/M06 A3037 RMK A01 T00101058  RH  060%=      5-min Rain = 0
KLE1 120840Z 01007KT 01/M06 A3037 RMK A01 T00111057  RH  060%=      5-min Rain = 0
KLE1 120841Z 01007KT 01/M06 A3037 RMK A01 T00111057  RH  061%=      5-min Rain = 0
KLE1 120842Z 01007KT 01/M06 A3037 RMK A01 T00111057  RH  061%=      5-min Rain = 0
KLE1 120843Z 01007KT 01/M06 A3037 RMK A01 T00101058  RH  061%=      5-min Rain = 0
KLE1 120844Z 01006KT 01/M06 A3037 RMK A01 T00101058  RH  061%=      5-min Rain = 0
KLE1 120845Z 01007KT 01/M06 A3037 RMK A01 T00101058  RH  061%=      5-min Rain = 0
KLE1 120846Z 01007KT 01/M06 A3037 RMK A01 T00091058  RH  061%=      5-min Rain = 0
KLE1 120847Z 01007KT 01/M06 A3037 RMK A01 T00091057  RH  061%=      5-min Rain = 0
KLE1 120848Z 01007KT 01/M06 A3037 RMK A01 T00101057  RH  061%=      5-min Rain = 0
KLE1 120849Z 01007KT 01/M06 A3037 RMK A01 T00101057  RH  061%=      5-min Rain = 0
KLE1 120850Z 01007KT 01/M06 A3037 RMK A01 T00101057  RH  061%=      5-min Rain = 0
KLE1 120851Z 01007KT 01/M06 A3037 RMK A01 T00101056  RH  061%=      5-min Rain = 0
KLE1 120852Z 01007KT 01/M06 A3037 RMK A01 T00101056  RH  061%=      5-min Rain = 0
KLE1 120853Z 01007KT 01/M06 A3037 RMK A01 T00101056  RH  061%=      5-min Rain = 0
KLE1 120854Z 01007KT 01/M06 A3037 RMK A01 T00111056  RH  061%=      5-min Rain = 0
KLE1 120855Z 01007KT 01/M06 A3037 RMK A01 T00111056  RH  061%=      5-min Rain = 0
KLE1 120856Z 01007KT 01/M06 A3037 RMK A01 T00101057  RH  061%=      5-min Rain = 0
KLE1 120857Z 01006KT 01/M06 A3037 RMK A01 T00091058  RH  061%=      5-min Rain = 0
KLE1 120858Z 01006KT 01/M06 A3037 RMK A01 T00081059  RH  061%=      5-min Rain = 0
KLE1 120859Z 00006KT 01/M06 A3037 RMK A01 T00071059  RH  061%=      5-min Rain = 0
KLE1 120900Z 00006KT 01/M06 A3037 RMK A01 T00061060  RH  061%=      5-min Rain = 0
KLE1 120901Z 00006KT 01/M06 A3037 RMK A01 T00061060  RH  061%=      5-min Rain = 0
KLE1 120902Z 36005KT 01/M06 A3037 RMK A01 T00051061  RH  061%=      5-min Rain = 0
KLE1 120903Z 35004KT 01/M06 A3037 RMK A01 T00051061  RH  061%=      5-min Rain = 0
KLE1 120904Z 35004KT 01/M06 A3037 RMK A01 T00051061  RH  061%=      5-min Rain = 0
KLE1 120905Z 33004KT 01/M06 A3037 RMK A01 T00051061  RH  061%=      5-min Rain = 0
KLE1 120906Z 32003KT 01/M06 A3037 RMK A01 T00061060  RH  062%=      5-min Rain = 0
KLE1 120907Z 29003KT 01/M06 A3037 RMK A01 T00071060  RH  061%=      5-min Rain = 0
KLE1 120908Z 26004KT 01/M06 A3037 RMK A01 T00061062  RH  060%=      5-min Rain = 0
KLE1 120909Z 24006KT 00/M06 A3037 RMK A01 T00041064  RH  061%=      5-min Rain = 0
KLE1 120910Z 24007KT 00/07 A3037 RMK A01 T00-00-66  RH  061%=      5-min Rain = 0
KLE1 120911Z 23006KT M00/M07 A3037 RMK A01 T10031066  RH  062%=      5-min Rain = 0
KLE1 120912Z 24005KT M00/M07 A3037 RMK A01 T10041066  RH  063%=      5-min Rain = 0
KLE1 120913Z 25003KT M01/M07 A3037 RMK A01 T10051067  RH  063%=      5-min Rain = 0
KLE1 120914Z 25004KT M01/M07 A3037 RMK A01 T10051066  RH  064%=      5-min Rain = 0
KLE1 120915Z 26004KT M01/M07 A3037 RMK A01 T10051065  RH  064%=      5-min Rain = 0
KLE1 120916Z 26004KT M01/M07 A3037 RMK A01 T10051065  RH  064%=      5-min Rain = 0
KLE1 120917Z 26004KT M01/M07 A3037 RMK A01 T10051065  RH  064%=      5-min Rain = 0
KLE1 120918Z 26006KT M01/M07 A3037 RMK A01 T10051066  RH  063%=      5-min Rain = 0
KLE1 120919Z 26005KT M01/M07 A3037 RMK A01 T10051067  RH  063%=      5-min Rain = 0
KLE1 120920Z 26007KT M01/M07 A3037 RMK A01 T10071069  RH  063%=      5-min Rain = 0
KLE1 120921Z 26007KT M01/M07 A3037 RMK A01 T10071070  RH  063%=      5-min Rain = 0
KLE1 120922Z 26007KT M01/M07 A3037 RMK A01 T10081071  RH  063%=      5-min Rain = 0
KLE1 120923Z 26007KT M01/M07 A3037 RMK A01 T10091071  RH  063%=      5-min Rain = 0
KLE1 120924Z 27006KT M01/M07 A3037 RMK A01 T10101072  RH  063%=      5-min Rain = 0
KLE1 120925Z 27006KT M01/M07 A3037 RMK A01 T10101072  RH  063%=      5-min Rain = 0
KLE1 120926Z 27006KT M01/M07 A3037 RMK A01 T10111072  RH  063%=      5-min Rain = 0
KLE1 120927Z 27005KT M01/M07 A3037 RMK A01 T10101072  RH  063%=      5-min Rain = 0
KLE1 120928Z 28005KT M01/M07 A3037 RMK A01 T10091072  RH  063%=      5-min Rain = 0
KLE1 120929Z 28005KT M01/M07 A3037 RMK A01 T10091072  RH  062%=      5-min Rain = 0
KLE1 120930Z 28005KT M01/M07 A3037 RMK A01 T10091073  RH  062%=      5-min Rain = 0
KLE1 120931Z 28005KT M01/M07 A3037 RMK A01 T10081073  RH  062%=      5-min Rain = 0
KLE1 120932Z 29005KT M01/M07 A3037 RMK A01 T10091073  RH  062%=      5-min Rain = 0
KLE1 120933Z 29005KT M01/M07 A3037 RMK A01 T10081072  RH  062%=      5-min Rain = 0
KLE1 120934Z 29004KT M01/M07 A3037 RMK A01 T10081072  RH  062%=      5-min Rain = 0
KLE1 120935Z 29004KT M01/M07 A3037 RMK A01 T10081071  RH  062%=      5-min Rain = 0
KLE1 120936Z 29004KT M01/M07 A3037 RMK A01 T10081070  RH  063%=      5-min Rain = 0
KLE1 120937Z 29004KT M01/M07 A3037 RMK A01 T10081070  RH  063%=      5-min Rain = 0
KLE1 120938Z 28005KT M01/M07 A3037 RMK A01 T10071069  RH  063%=      5-min Rain = 0
KLE1 120939Z 28005KT M01/M07 A3037 RMK A01 T10071068  RH  063%=      5-min Rain = 0
KLE1 120940Z 28005KT M01/M07 A3037 RMK A01 T10071067  RH  064%=      5-min Rain = 0
KLE1 120941Z 27004KT M01/M07 A3037 RMK A01 T10071068  RH  063%=      5-min Rain = 0
KLE1 120942Z 27005KT M01/M07 A3037 RMK A01 T10081070  RH  063%=      5-min Rain = 0
KLE1 120943Z 26005KT M01/M07 A3037 RMK A01 T10091070  RH  064%=      5-min Rain = 0
KLE1 120944Z 26005KT M01/M07 A3037 RMK A01 T10091069  RH  064%=      5-min Rain = 0
KLE1 120945Z 26005KT M01/M07 A3037 RMK A01 T10091069  RH  064%=      5-min Rain = 0
KLE1 120946Z 27005KT M01/M07 A3037 RMK A01 T10091069  RH  064%=      5-min Rain = 0
KLE1 120947Z 27005KT M01/M07 A3037 RMK A01 T10091069  RH  063%=      5-min Rain = 0
KLE1 120948Z 27005KT M01/M07 A3037 RMK A01 T10081070  RH  063%=      5-min Rain = 0
KLE1 120949Z 28005KT M01/M07 A3037 RMK A01 T10091072  RH  062%=      5-min Rain = 0
KLE1 120950Z 28005KT M01/M07 A3037 RMK A01 T10101073  RH  062%=      5-min Rain = 0
KLE1 120951Z 29005KT M01/M07 A3037 RMK A01 T10101074  RH  062%=      5-min Rain = 0
KLE1 120952Z 29005KT M01/M07 A3037 RMK A01 T10111074  RH  062%=      5-min Rain = 0
KLE1 120953Z 29005KT M01/M07 A3037 RMK A01 T10111074  RH  062%=      5-min Rain = 0
KLE1 120954Z 29005KT M01/M07 A3037 RMK A01 T10121074  RH  063%=      5-min Rain = 0
KLE1 120955Z 30005KT M01/M07 A3037 RMK A01 T10111072  RH  063%=      5-min Rain = 0
KLE1 120956Z 31005KT M01/M07 A3037 RMK A01 T10111070  RH  064%=      5-min Rain = 0
KLE1 120957Z 31005KT M01/M07 A3037 RMK A01 T10101068  RH  065%=      5-min Rain = 0
KLE1 120958Z 31006KT M01/M07 A3037 RMK A01 T10091067  RH  065%=      5-min Rain = 0
KLE1 120959Z 31006KT M01/M06 A3037 RMK A01 T10091063  RH  066%=      5-min Rain = 0
KLE1 121000Z 31006KT M01/M06 A3037 RMK A01 T10071061  RH  067%=      5-min Rain = 0
KLE1 121001Z 31006KT M01/M06 A3037 RMK A01 T10061060  RH  067%=      5-min Rain = 0
KLE1 121002Z 32006KT M01/M06 A3037 RMK A01 T10061061  RH  066%=      5-min Rain = 0
KLE1 121003Z 32006KT M01/M06 A3037 RMK A01 T10061062  RH  066%=      5-min Rain = 0
KLE1 121004Z 32006KT M01/M06 A3037 RMK A01 T10061062  RH  066%=      5-min Rain = 0
KLE1 121005Z 32006KT M01/M06 A3037 RMK A01 T10071063  RH  066%=      5-min Rain = 0
KLE1 121006Z 32006KT M01/M06 A3037 RMK A01 T10061062  RH  066%=      5-min Rain = 0
KLE1 121007Z 32006KT M01/M06 A3037 RMK A01 T10061062  RH  066%=      5-min Rain = 0
KLE1 121008Z 32006KT M01/M06 A3037 RMK A01 T10061062  RH  066%=      5-min Rain = 0
KLE1 121009Z 31005KT M01/M06 A3037 RMK A01 T10061063  RH  065%=      5-min Rain = 0
KLE1 121010Z 31006KT M01/M06 A3037 RMK A01 T10061063  RH  065%=      5-min Rain = 0
KLE1 121011Z 31006KT M01/M06 A3037 RMK A01 T10061063  RH  065%=      5-min Rain = 0
KLE1 121012Z 31006KT M01/M06 A3037 RMK A01 T10061063  RH  065%=      5-min Rain = 0
KLE1 121013Z 32006KT M01/M06 A3037 RMK A01 T10061063  RH  065%=      5-min Rain = 0
KLE1 121014Z 31005KT M01/M06 A3037 RMK A01 T10051063  RH  065%=      5-min Rain = 0
KLE1 121015Z 32005KT M01/M06 A3037 RMK A01 T10051063  RH  065%=      5-min Rain = 0
KLE1 121016Z 31006KT M01/M06 A3037 RMK A01 T10051064  RH  065%=      5-min Rain = 0
KLE1 121017Z 31006KT M01/M06 A3037 RMK A01 T10051063  RH  065%=      5-min Rain = 0
KLE1 121018Z 31006KT M01/M06 A3037 RMK A01 T10051063  RH  065%=      5-min Rain = 0
KLE1 121019Z 31005KT M01/M06 A3037 RMK A01 T10061063  RH  065%=      5-min Rain = 0
KLE1 121020Z 31005KT M01/M06 A3037 RMK A01 T10051062  RH  065%=      5-min Rain = 0
KLE1 121021Z 31005KT M01/M06 A3037 RMK A01 T10061063  RH  065%=      5-min Rain = 0
KLE1 121022Z 30004KT M01/M06 A3037 RMK A01 T10061063  RH  065%=      5-min Rain = 0
KLE1 121023Z 30004KT M01/M06 A3037 RMK A01 T10051063  RH  065%=      5-min Rain = 0
KLE1 121024Z 30004KT M01/M06 A3037 RMK A01 T10061063  RH  065%=      5-min Rain = 0
KLE1 121025Z 31004KT M01/M06 A3037 RMK A01 T10051063  RH  065%=      5-min Rain = 0
KLE1 121026Z 31004KT M01/M06 A3037 RMK A01 T10051062  RH  065%=      5-min Rain = 0
KLE1 121027Z 31004KT M00/M06 A3037 RMK A01 T10041061  RH  065%=      5-min Rain = 0
KLE1 121028Z 31004KT M00/M06 A3037 RMK A01 T10041061  RH  065%=      5-min Rain = 0
KLE1 121029Z 32004KT M00/M06 A3037 RMK A01 T10031061  RH  065%=      5-min Rain = 0
KLE1 121030Z 31004KT M00/M06 A3037 RMK A01 T10031062  RH  065%=      5-min Rain = 0
KLE1 121031Z 31004KT M00/M06 A3037 RMK A01 T10041062  RH  065%=      5-min Rain = 0
KLE1 121032Z 31004KT M00/M06 A3037 RMK A01 T10041061  RH  065%=      5-min Rain = 0
KLE1 121033Z 30005KT M00/M06 A3037 RMK A01 T10031061  RH  065%=      5-min Rain = 0
KLE1 121034Z 29004KT M00/M06 A3037 RMK A01 T10021061  RH  064%=      5-min Rain = 0
KLE1 121035Z 29004KT M00/M06 A3037 RMK A01 T10021062  RH  064%=      5-min Rain = 0
KLE1 121036Z 30005KT M00/M06 A3037 RMK A01 T10021062  RH  064%=      5-min Rain = 0
KLE1 121037Z 30004KT M00/M06 A3037 RMK A01 T10031063  RH  064%=      5-min Rain = 0
KLE1 121038Z 30005KT M00/M06 A3037 RMK A01 T10031063  RH  064%=      5-min Rain = 0
KLE1 121039Z 30004KT M00/M06 A3037 RMK A01 T10031063  RH  064%=      5-min Rain = 0
KLE1 121040Z 30005KT M00/M06 A3037 RMK A01 T10031063  RH  064%=      5-min Rain = 0
KLE1 121041Z 30005KT M00/M06 A3037 RMK A01 T10021063  RH  064%=      5-min Rain = 0
KLE1 121042Z 30005KT M00/M06 A3037 RMK A01 T10021063  RH  064%=      5-min Rain = 0
KLE1 121043Z 30005KT M00/M06 A3037 RMK A01 T10031063  RH  064%=      5-min Rain = 0
KLE1 121044Z 30005KT M00/M06 A3037 RMK A01 T10031063  RH  064%=      5-min Rain = 0
KLE1 121045Z 31005KT M00/M06 A3037 RMK A01 T10041064  RH  064%=      5-min Rain = 0
KLE1 121046Z 31005KT M01/M07 A3037 RMK A01 T10051065  RH  064%=      5-min Rain = 0
KLE1 121047Z 31005KT M01/M07 A3037 RMK A01 T10061065  RH  064%=      5-min Rain = 0
KLE1 121048Z 31005KT M01/M07 A3037 RMK A01 T10061065  RH  065%=      5-min Rain = 0
KLE1 121049Z 31004KT M01/M07 A3037 RMK A01 T10061065  RH  065%=      5-min Rain = 0
KLE1 121050Z 31004KT M01/M06 A3037 RMK A01 T10061064  RH  065%=      5-min Rain = 0
KLE1 121051Z 31005KT M01/M06 A3037 RMK A01 T10061064  RH  065%=      5-min Rain = 0
KLE1 121052Z 31005KT M01/M06 A3037 RMK A01 T10061063  RH  065%=      5-min Rain = 0
KLE1 121053Z 31005KT M01/M06 A3037 RMK A01 T10051062  RH  065%=      5-min Rain = 0
KLE1 121054Z 31005KT M00/M06 A3037 RMK A01 T10041061  RH  065%=      5-min Rain = 0
KLE1 121055Z 31005KT M00/M06 A3037 RMK A01 T10021061  RH  065%=      5-min Rain = 0
KLE1 121056Z 31005KT M00/M06 A3037 RMK A01 T10011061  RH  064%=      5-min Rain = 0
KLE1 121057Z 31005KT M00/M06 A3037 RMK A01 T10011062  RH  064%=      5-min Rain = 0
KLE1 121058Z 31005KT M00/M06 A3037 RMK A01 T10021063  RH  063%=      5-min Rain = 0
KLE1 121059Z 31004KT M00/M06 A3037 RMK A01 T10031064  RH  063%=      5-min Rain = 0
KLE1 121100Z 31004KT M00/M06 A3037 RMK A01 T10031063  RH  064%=      5-min Rain = 0
KLE1 121101Z 32005KT M00/M06 A3037 RMK A01 T10021061  RH  064%=      5-min Rain = 0
KLE1 121102Z 32004KT M00/M06 A3037 RMK A01 T10011061  RH  064%=      5-min Rain = 0
KLE1 121103Z 31004KT 00/06 A3037 RMK A01 T00-00-62  RH  063%=      5-min Rain = 0
KLE1 121104Z 31005KT 00/06 A3037 RMK A01 T00-00-62  RH  063%=      5-min Rain = 0
KLE1 121105Z 32005KT 00/06 A3037 RMK A01 T00-00-62  RH  063%=      5-min Rain = 0
KLE1 121106Z 32005KT 00/M06 A3037 RMK A01 T00011061  RH  063%=      5-min Rain = 0
KLE1 121107Z 31005KT 00/M06 A3037 RMK A01 T00021060  RH  063%=      5-min Rain = 0
KLE1 121108Z 32005KT 00/M06 A3037 RMK A01 T00031060  RH  063%=      5-min Rain = 0
KLE1 121109Z 32004KT 00/M06 A3037 RMK A01 T00031060  RH  063%=      5-min Rain = 0
KLE1 121110Z 31004KT 00/M06 A3038 RMK A01 T00041060  RH  062%=      5-min Rain = 0
KLE1 121111Z 31004KT 00/M06 A3038 RMK A01 T00031061  RH  062%=      5-min Rain = 0
KLE1 121112Z 31003KT 00/M06 A3038 RMK A01 T00031061  RH  062%=      5-min Rain = 0
KLE1 121113Z 31003KT 00/M07 A3038 RMK A01 T00021065  RH  061%=      5-min Rain = 0
KLE1 121114Z 31004KT M00/M07 A3038 RMK A01 T10021069  RH  061%=      5-min Rain = 0
KLE1 121115Z 31004KT M00/M07 A3038 RMK A01 T10031067  RH  062%=      5-min Rain = 0
KLE1 121116Z 31004KT M00/M07 A3038 RMK A01 T10031066  RH  062%=      5-min Rain = 0
KLE1 121117Z 31004KT M00/M07 A3038 RMK A01 T10041067  RH  063%=      5-min Rain = 0
KLE1 121118Z 31004KT M01/M07 A3038 RMK A01 T10051066  RH  063%=      5-min Rain = 0
KLE1 121119Z 31004KT M01/M07 A3038 RMK A01 T10051067  RH  063%=      5-min Rain = 0
KLE1 121120Z 28004KT M01/M07 A3038 RMK A01 T10081069  RH  063%=      5-min Rain = 0
KLE1 121121Z 26005KT M01/M07 A3038 RMK A01 T10111070  RH  064%=      5-min Rain = 0
KLE1 121122Z 26006KT M02/M07 A3038 RMK A01 T10151072  RH  065%=      5-min Rain = 0
KLE1 121123Z 26006KT M02/M08 A3038 RMK A01 T10181075  RH  065%=      5-min Rain = 0
KLE1 121124Z 27007KT M02/M08 A3038 RMK A01 T10211076  RH  066%=      5-min Rain = 0
KLE1 121125Z 27006KT M02/M08 A3038 RMK A01 T10221076  RH  067%=      5-min Rain = 0
KLE1 121126Z 26006KT M02/M08 A3038 RMK A01 T10221075  RH  067%=      5-min Rain = 0
KLE1 121127Z 27005KT M02/M07 A3038 RMK A01 T10231074  RH  068%=      5-min Rain = 0
KLE1 121128Z 27004KT M02/M07 A3038 RMK A01 T10221073  RH  068%=      5-min Rain = 0
KLE1 121129Z 28004KT M02/M07 A3038 RMK A01 T10231072  RH  069%=      5-min Rain = 0
KLE1 121130Z 28004KT M02/M07 A3038 RMK A01 T10231071  RH  069%=      5-min Rain = 0
KLE1 121131Z 28004KT M02/M07 A3038 RMK A01 T10231070  RH  070%=      5-min Rain = 0
KLE1 121132Z 27005KT M02/M07 A3038 RMK A01 T10231070  RH  070%=      5-min Rain = 0
KLE1 121133Z 27006KT M02/M07 A3038 RMK A01 T10231070  RH  070%=      5-min Rain = 0
KLE1 121134Z 27006KT M02/M07 A3038 RMK A01 T10231070  RH  070%=      5-min Rain = 0
KLE1 121135Z 27006KT M02/M07 A3038 RMK A01 T10231071  RH  069%=      5-min Rain = 0
KLE1 121136Z 27005KT M02/M07 A3039 RMK A01 T10231072  RH  069%=      5-min Rain = 0
KLE1 121137Z 28005KT M02/M07 A3039 RMK A01 T10231073  RH  069%=      5-min Rain = 0
KLE1 121138Z 28005KT M02/M07 A3039 RMK A01 T10231074  RH  068%=      5-min Rain = 0
KLE1 121139Z 28005KT M02/M07 A3039 RMK A01 T10231074  RH  068%=      5-min Rain = 0
KLE1 121140Z 28005KT M02/M07 A3039 RMK A01 T10231074  RH  068%=      5-min Rain = 0
KLE1 121141Z 27006KT M02/M08 A3039 RMK A01 T10231075  RH  068%=      5-min Rain = 0
KLE1 121142Z 27006KT M02/M08 A3039 RMK A01 T10231075  RH  068%=      5-min Rain = 0
KLE1 121143Z 27006KT M02/M07 A3039 RMK A01 T10231074  RH  068%=      5-min Rain = 0
KLE1 121144Z 28005KT M02/M08 A3039 RMK A01 T10231075  RH  068%=      5-min Rain = 0
KLE1 121145Z 28005KT M02/M07 A3039 RMK A01 T10231074  RH  068%=      5-min Rain = 0
KLE1 121146Z 28005KT M02/M07 A3039 RMK A01 T10231074  RH  068%=      5-min Rain = 0
KLE1 121147Z 28005KT M02/M07 A3039 RMK A01 T10231074  RH  068%=      5-min Rain = 0
KLE1 121148Z 28005KT M02/M07 A3039 RMK A01 T10231074  RH  068%=      5-min Rain = 0
KLE1 121149Z 28005KT M02/M07 A3039 RMK A01 T10231074  RH  068%=      5-min Rain = 0
KLE1 121150Z 28005KT M02/M07 A3039 RMK A01 T10231074  RH  068%=      5-min Rain = 0
KLE1 121151Z 28005KT M02/M07 A3039 RMK A01 T10231074  RH  068%=      5-min Rain = 0
KLE1 121152Z 28005KT M02/M07 A3039 RMK A01 T10221074  RH  068%=      5-min Rain = 0
KLE1 121153Z 28005KT M02/M07 A3039 RMK A01 T10221074  RH  068%=      5-min Rain = 0
KLE1 121154Z 28004KT M02/M07 A3039 RMK A01 T10221074  RH  068%=      5-min Rain = 0
KLE1 121155Z 28005KT M02/M07 A3039 RMK A01 T10221074  RH  068%=      5-min Rain = 0
KLE1 121156Z 29005KT M02/M07 A3039 RMK A01 T10221074  RH  068%=      5-min Rain = 0
KLE1 121157Z 29005KT M02/M07 A3039 RMK A01 T10221074  RH  068%=      5-min Rain = 0
KLE1 121158Z 29005KT M02/M07 A3039 RMK A01 T10231073  RH  068%=      5-min Rain = 0
KLE1 121159Z 29005KT M02/M07 A3039 RMK A01 T10221073  RH  068%=      5-min Rain = 0
KLE1 121200Z 29004KT M02/M07 A3039 RMK A01 T10221072  RH  068%=      5-min Rain = 0
KLE1 121201Z 29005KT M02/M07 A3039 RMK A01 T10211072  RH  068%=      5-min Rain = 0
KLE1 121202Z 29005KT M02/M07 A3039 RMK A01 T10211072  RH  068%=      5-min Rain = 0
KLE1 121203Z 28005KT M02/M07 A3039 RMK A01 T10211072  RH  068%=      5-min Rain = 0
KLE1 121204Z 28005KT M02/M07 A3039 RMK A01 T10211072  RH  068%=      5-min Rain = 0
KLE1 121205Z 29005KT M02/M07 A3039 RMK A01 T10211072  RH  068%=      5-min Rain = 0
KLE1 121206Z 28005KT M02/M07 A3039 RMK A01 T10211072  RH  068%=      5-min Rain = 0
KLE1 121207Z 28005KT M02/M07 A3039 RMK A01 T10211072  RH  068%=      5-min Rain = 0
KLE1 121208Z 29005KT M02/M07 A3039 RMK A01 T10211072  RH  068%=      5-min Rain = 0
KLE1 121209Z 29004KT M02/M07 A3039 RMK A01 T10211072  RH  068%=      5-min Rain = 0
KLE1 121210Z 28004KT M02/M07 A3039 RMK A01 T10211072  RH  068%=      5-min Rain = 0
KLE1 121211Z 28004KT M02/M07 A3039 RMK A01 T10211072  RH  068%=      5-min Rain = 0
KLE1 121212Z 29004KT M02/M07 A3039 RMK A01 T10211072  RH  068%=      5-min Rain = 0
KLE1 121213Z 29004KT M02/M07 A3039 RMK A01 T10211072  RH  068%=      5-min Rain = 0
KLE1 121214Z 28005KT M02/M07 A3039 RMK A01 T10211072  RH  068%=      5-min Rain = 0
KLE1 121215Z 28005KT M02/M07 A3039 RMK A01 T10221071  RH  069%=      5-min Rain = 0
KLE1 121216Z 27005KT M02/M07 A3039 RMK A01 T10221071  RH  069%=      5-min Rain = 0
KLE1 121217Z 27005KT M02/M07 A3039 RMK A01 T10221071  RH  069%=      5-min Rain = 0
KLE1 121218Z 27005KT M02/M07 A3039 RMK A01 T10221072  RH  069%=      5-min Rain = 0
KLE1 121219Z 27005KT M02/M07 A3039 RMK A01 T10231073  RH  068%=      5-min Rain = 0
KLE1 121220Z 28005KT M02/M07 A3039 RMK A01 T10241074  RH  068%=      5-min Rain = 0
KLE1 121221Z 28005KT M02/M07 A3039 RMK A01 T10241074  RH  069%=      5-min Rain = 0
KLE1 121222Z 28005KT M03/M07 A3039 RMK A01 T10251074  RH  069%=      5-min Rain = 0
KLE1 121223Z 27005KT M03/M07 A3039 RMK A01 T10251074  RH  069%=      5-min Rain = 0
KLE1 121224Z 27005KT M03/M07 A3039 RMK A01 T10251074  RH  069%=      5-min Rain = 0
KLE1 121225Z 27006KT M03/M08 A3039 RMK A01 T10251075  RH  069%=      5-min Rain = 0
KLE1 121226Z 27005KT M03/M08 A3039 RMK A01 T10261075  RH  069%=      5-min Rain = 0
KLE1 121227Z 27006KT M03/M08 A3039 RMK A01 T10261075  RH  069%=      5-min Rain = 0
KLE1 121228Z 27005KT M03/M08 A3039 RMK A01 T10271075  RH  070%=      5-min Rain = 0
KLE1 121229Z 27005KT M03/M08 A3039 RMK A01 T10271075  RH  070%=      5-min Rain = 0
KLE1 121230Z 27005KT M03/M07 A3039 RMK A01 T10271074  RH  070%=      5-min Rain = 0
KLE1 121231Z 27005KT M03/M07 A3039 RMK A01 T10271074  RH  070%=      5-min Rain = 0
KLE1 121232Z 27005KT M03/M07 A3039 RMK A01 T10271073  RH  070%=      5-min Rain = 0
KLE1 121233Z 27005KT M03/M07 A3039 RMK A01 T10271074  RH  070%=      5-min Rain = 0
KLE1 121234Z 27006KT M03/M07 A3039 RMK A01 T10271074  RH  070%=      5-min Rain = 0
KLE1 121235Z 27006KT M03/M07 A3039 RMK A01 T10271074  RH  070%=      5-min Rain = 0
KLE1 121236Z 27006KT M03/M07 A3039 RMK A01 T10271074  RH  070%=      5-min Rain = 0
KLE1 121237Z 27006KT M03/M07 A3039 RMK A01 T10281074  RH  070%=      5-min Rain = 0
KLE1 121238Z 27005KT M03/M07 A3039 RMK A01 T10281074  RH  071%=      5-min Rain = 0
KLE1 121239Z 28005KT M03/M07 A3039 RMK A01 T10281074  RH  071%=      5-min Rain = 0
KLE1 121240Z 28005KT M03/M07 A3039 RMK A01 T10281074  RH  070%=      5-min Rain = 0
KLE1 121241Z 29005KT M03/M07 A3039 RMK A01 T10271074  RH  070%=      5-min Rain = 0
KLE1 121242Z 29005KT M03/M07 A3039 RMK A01 T10271074  RH  070%=      5-min Rain = 0
KLE1 121243Z 29005KT M03/M07 A3039 RMK A01 T10271074  RH  070%=      5-min Rain = 0
KLE1 121244Z 29005KT M03/M07 A304 RMK A01 T10261073  RH  070%=      5-min Rain = 0
KLE1 121245Z 29005KT M03/M07 A304 RMK A01 T10261073  RH  070%=      5-min Rain = 0
KLE1 121246Z 29005KT M03/M07 A304 RMK A01 T10261074  RH  070%=      5-min Rain = 0
KLE1 121247Z 30005KT M03/M07 A3039 RMK A01 T10251073  RH  070%=      5-min Rain = 0
KLE1 121248Z 30005KT M03/M07 A3039 RMK A01 T10251073  RH  070%=      5-min Rain = 0
KLE1 121249Z 30005KT M02/M07 A3039 RMK A01 T10241071  RH  070%=      5-min Rain = 0
KLE1 121250Z 31005KT M02/M07 A3039 RMK A01 T10231071  RH  070%=      5-min Rain = 0
KLE1 121251Z 31005KT M02/M07 A3039 RMK A01 T10231071  RH  069%=      5-min Rain = 0
KLE1 121252Z 31005KT M02/M07 A3039 RMK A01 T10231071  RH  069%=      5-min Rain = 0
KLE1 121253Z 31005KT M02/M07 A3039 RMK A01 T10231071  RH  069%=      5-min Rain = 0
KLE1 121254Z 31004KT M02/M07 A3039 RMK A01 T10231070  RH  070%=      5-min Rain = 0
KLE1 121255Z 32004KT M02/M07 A3039 RMK A01 T10231070  RH  070%=      5-min Rain = 0
KLE1 121256Z 32004KT M02/M07 A3039 RMK A01 T10231069  RH  070%=      5-min Rain = 0
KLE1 121257Z 33004KT M02/M07 A3039 RMK A01 T10231069  RH  071%=      5-min Rain = 0
KLE1 121258Z 33004KT M02/M07 A3039 RMK A01 T10231067  RH  072%=      5-min Rain = 0
KLE1 121259Z 33004KT M02/M07 A3039 RMK A01 T10231067  RH  072%=      5-min Rain = 0
KLE1 121300Z 33004KT M02/M07 A3039 RMK A01 T10231066  RH  072%=      5-min Rain = 0
KLE1 121301Z 33004KT M02/M07 A3039 RMK A01 T10221065  RH  073%=      5-min Rain = 0
KLE1 121302Z 32003KT M02/M07 A304 RMK A01 T10221065  RH  072%=      5-min Rain = 0
KLE1 121303Z 32003KT M02/M07 A304 RMK A01 T10221066  RH  072%=      5-min Rain = 0
KLE1 121304Z 32003KT M02/M07 A304 RMK A01 T10221066  RH  072%=      5-min Rain = 0
KLE1 121305Z 33003KT M02/M07 A304 RMK A01 T10221066  RH  072%=      5-min Rain = 0
KLE1 121306Z 34004KT M02/M07 A304 RMK A01 T10221066  RH  072%=      5-min Rain = 0
KLE1 121307Z 34004KT M02/M07 A304 RMK A01 T10211065  RH  072%=      5-min Rain = 0
KLE1 121308Z 34004KT M02/M07 A3039 RMK A01 T10211065  RH  072%=      5-min Rain = 0
KLE1 121309Z 34003KT M02/M07 A3039 RMK A01 T10211065  RH  071%=      5-min Rain = 0
KLE1 121310Z 34003KT M02/M07 A304 RMK A01 T10201066  RH  071%=      5-min Rain = 0
KLE1 121311Z 34003KT M02/M07 A304 RMK A01 T10211066  RH  071%=      5-min Rain = 0
KLE1 121312Z 35004KT M02/M07 A304 RMK A01 T10211066  RH  071%=      5-min Rain = 0
KLE1 121313Z 35004KT M02/M07 A304 RMK A01 T10201066  RH  071%=      5-min Rain = 0
KLE1 121314Z 35004KT M02/M07 A304 RMK A01 T10201067  RH  071%=      5-min Rain = 0
KLE1 121315Z 35004KT M02/M07 A304 RMK A01 T10201067  RH  070%=      5-min Rain = 0
KLE1 121316Z 35004KT M02/M07 A304 RMK A01 T10201068  RH  070%=      5-min Rain = 0
KLE1 121317Z 34004KT M02/M07 A304 RMK A01 T10211070  RH  069%=      5-min Rain = 0
KLE1 121318Z 33003KT M02/M07 A304 RMK A01 T10221071  RH  069%=      5-min Rain = 0
KLE1 121319Z 29003KT M02/M07 A304 RMK A01 T10231072  RH  069%=      5-min Rain = 0
KLE1 121320Z 27003KT M02/M07 A304 RMK A01 T10241073  RH  069%=      5-min Rain = 0
KLE1 121321Z 27002KT M03/M07 A304 RMK A01 T10261074  RH  069%=      5-min Rain = 0
KLE1 121322Z 28002KT M03/M08 A304 RMK A01 T10281076  RH  070%=      5-min Rain = 0
KLE1 121323Z 28002KT M03/M08 A304 RMK A01 T10301076  RH  071%=      5-min Rain = 0
KLE1 121324Z 27002KT M03/M08 A304 RMK A01 T10311075  RH  071%=      5-min Rain = 0
KLE1 121325Z 26003KT M03/M07 A304 RMK A01 T10311074  RH  072%=      5-min Rain = 0
KLE1 121326Z 25003KT M03/M07 A304 RMK A01 T10321073  RH  073%=      5-min Rain = 0
KLE1 121327Z 25003KT M03/M07 A304 RMK A01 T10321073  RH  073%=      5-min Rain = 0
KLE1 121328Z 25003KT M03/M07 A304 RMK A01 T10321072  RH  074%=      5-min Rain = 0
KLE1 121329Z 25003KT M03/M07 A304 RMK A01 T10321072  RH  074%=      5-min Rain = 0
KLE1 121330Z 25003KT M03/M07 A304 RMK A01 T10321072  RH  074%=      5-min Rain = 0
KLE1 121331Z 26003KT M03/M07 A304 RMK A01 T10311073  RH  073%=      5-min Rain = 0
KLE1 121332Z 26003KT M03/M07 A304 RMK A01 T10301073  RH  072%=      5-min Rain = 0
KLE1 121333Z 25003KT M03/M07 A304 RMK A01 T10291073  RH  072%=      5-min Rain = 0
KLE1 121334Z 26003KT M03/M07 A304 RMK A01 T10291074  RH  071%=      5-min Rain = 0
KLE1 121335Z 27002KT M03/M07 A304 RMK A01 T10281074  RH  071%=      5-min Rain = 0
KLE1 121336Z 28003KT M03/M07 A304 RMK A01 T10271074  RH  070%=      5-min Rain = 0
KLE1 121337Z 28003KT M03/M07 A304 RMK A01 T10261073  RH  070%=      5-min Rain = 0
KLE1 121338Z 27003KT M03/M07 A304 RMK A01 T10251072  RH  070%=      5-min Rain = 0
KLE1 121339Z 27003KT M02/M07 A304 RMK A01 T10241072  RH  070%=      5-min Rain = 0
KLE1 121340Z 27003KT M02/M07 A304 RMK A01 T10241071  RH  070%=      5-min Rain = 0
KLE1 121341Z 27003KT M02/M07 A304 RMK A01 T10231071  RH  070%=      5-min Rain = 0
KLE1 121342Z 26003KT M02/M07 A304 RMK A01 T10231071  RH  070%=      5-min Rain = 0
KLE1 121343Z 26002KT M02/M07 A3041 RMK A01 T10221069  RH  070%=      5-min Rain = 0
KLE1 121344Z 26002KT M02/M07 A3041 RMK A01 T10211069  RH  070%=      5-min Rain = 0
KLE1 121345Z 26002KT M02/M07 A3041 RMK A01 T10201069  RH  069%=      5-min Rain = 0
KLE1 121346Z 26003KT M02/M07 A3041 RMK A01 T10201069  RH  069%=      5-min Rain = 0
KLE1 121347Z 26003KT M02/M07 A3041 RMK A01 T10191068  RH  069%=      5-min Rain = 0
KLE1 121348Z 26003KT M02/M07 A3041 RMK A01 T10181067  RH  069%=      5-min Rain = 0
KLE1 121349Z 26004KT M02/M07 A3041 RMK A01 T10181067  RH  069%=      5-min Rain = 0
KLE1 121350Z 26004KT M02/M07 A3041 RMK A01 T10171066  RH  069%=      5-min Rain = 0
KLE1 121351Z 26004KT M02/M07 A3041 RMK A01 T10161066  RH  069%=      5-min Rain = 0
KLE1 121352Z 26003KT M02/M07 A3041 RMK A01 T10161066  RH  068%=      5-min Rain = 0
KLE1 121353Z 26003KT M02/M07 A3041 RMK A01 T10151066  RH  068%=      5-min Rain = 0
KLE1 121354Z 26003KT M02/M07 A3041 RMK A01 T10151065  RH  068%=      5-min Rain = 0
KLE1 121355Z 26003KT M01/M07 A3041 RMK A01 T10141066  RH  068%=      5-min Rain = 0
KLE1 121356Z 25003KT M01/M06 A3041 RMK A01 T10131064  RH  068%=      5-min Rain = 0
KLE1 121357Z 25003KT M01/M06 A3041 RMK A01 T10121064  RH  068%=      5-min Rain = 0
KLE1 121358Z 24003KT M01/M06 A3041 RMK A01 T10121064  RH  067%=      5-min Rain = 0
KLE1 121359Z 24003KT M01/M06 A3041 RMK A01 T10111064  RH  067%=      5-min Rain = 0
KLE1 121400Z 25003KT M01/M06 A3041 RMK A01 T10101064  RH  067%=      5-min Rain = 0
KLE1 121401Z 25003KT M01/M07 A3041 RMK A01 T10101065  RH  066%=      5-min Rain = 0
KLE1 121402Z 25002KT M01/M07 A3041 RMK A01 T10101065  RH  066%=      5-min Rain = 0
KLE1 121403Z 26002KT M01/M06 A3041 RMK A01 T10091063  RH  067%=      5-min Rain = 0
KLE1 121404Z 27002KT M01/M06 A3041 RMK A01 T10081063  RH  066%=      5-min Rain = 0
KLE1 121405Z 27002KT M01/M06 A3041 RMK A01 T10071064  RH  065%=      5-min Rain = 0
KLE1 121406Z 26001KT M01/M06 A3041 RMK A01 T10061064  RH  065%=      5-min Rain = 0
KLE1 121407Z 28001KT M01/M06 A3041 RMK A01 T10051063  RH  065%=      5-min Rain = 0
KLE1 121408Z 28002KT M00/M06 A3041 RMK A01 T10041062  RH  065%=      5-min Rain = 0
KLE1 121409Z 28002KT M00/M06 A3041 RMK A01 T10031063  RH  064%=      5-min Rain = 0
KLE1 121410Z 29002KT M00/M06 A3041 RMK A01 T10021062  RH  064%=      5-min Rain = 0
KLE1 121411Z 29002KT M00/M06 A3041 RMK A01 T10011062  RH  064%=      5-min Rain = 0
KLE1 121412Z 30002KT 00/06 A3041 RMK A01 T00000-62  RH  063%=      5-min Rain = 0
KLE1 121413Z 29001KT 00/M06 A3041 RMK A01 T00011061  RH  063%=      5-min Rain = 0
KLE1 121414Z 29001KT 00/M06 A3041 RMK A01 T00031060  RH  063%=      5-min Rain = 0
KLE1 121415Z 29000KT 00/M06 A3041 RMK A01 T00041060  RH  062%=      5-min Rain = 0
KLE1 121416Z 00000KT 01/M06 A3041 RMK A01 T00051059  RH  062%=      5-min Rain = 0
KLE1 121417Z 00000KT 01/M06 A3041 RMK A01 T00071058  RH  062%=      5-min Rain = 0
KLE1 121418Z 00000KT 01/M06 A3041 RMK A01 T00091057  RH  062%=      5-min Rain = 0
KLE1 121419Z 00000KT 01/M06 A3041 RMK A01 T00111055  RH  061%=      5-min Rain = 0
KLE1 121420Z 00000KT 01/M05 A3041 RMK A01 T00141053  RH  061%=      5-min Rain = 0
KLE1 121421Z 00000KT 02/M05 A3041 RMK A01 T00161052  RH  061%=      5-min Rain = 0
KLE1 121422Z 23000KT 02/M05 A3041 RMK A01 T00181053  RH  060%=      5-min Rain = 0
KLE1 121423Z 24001KT 02/M05 A3041 RMK A01 T00191053  RH  059%=      5-min Rain = 0
KLE1 121424Z 23001KT 02/M05 A3041 RMK A01 T00201053  RH  058%=      5-min Rain = 0
KLE1 121425Z 25001KT 02/M05 A3042 RMK A01 T00211053  RH  058%=      5-min Rain = 0
KLE1 121426Z 24001KT 02/M05 A3042 RMK A01 T00211054  RH  058%=      5-min Rain = 0
KLE1 121427Z 24000KT 02/M05 A3042 RMK A01 T00211054  RH  058%=      5-min Rain = 0
KLE1 121428Z 25000KT 02/M05 A3042 RMK A01 T00221054  RH  057%=      5-min Rain = 0
KLE1 121429Z 19000KT 02/M05 A3042 RMK A01 T00231053  RH  057%=      5-min Rain = 0
KLE1 121430Z 21000KT 03/M05 A3041 RMK A01 T00251052  RH  057%=      5-min Rain = 0
KLE1 121431Z 17000KT 03/M05 A3041 RMK A01 T00281051  RH  056%=      5-min Rain = 0
KLE1 121432Z 12000KT 03/M05 A3041 RMK A01 T00301050  RH  056%=      5-min Rain = 0
KLE1 121433Z 13000KT 03/M05 A3041 RMK A01 T00331049  RH  055%=      5-min Rain = 0
KLE1 121434Z 13001KT 04/M05 A3041 RMK A01 T00351048  RH  054%=      5-min Rain = 0
KLE1 121435Z 13001KT 04/M05 A3041 RMK A01 T00381047  RH  054%=      5-min Rain = 0
KLE1 121436Z 15001KT 04/M05 A3041 RMK A01 T00401047  RH  053%=      5-min Rain = 0
KLE1 121437Z 14002KT 04/M05 A3041 RMK A01 T00421048  RH  052%=      5-min Rain = 0
KLE1 121438Z 17002KT 04/M05 A3042 RMK A01 T00431048  RH  052%=      5-min Rain = 0
KLE1 121439Z 19001KT 04/M05 A3042 RMK A01 T00431048  RH  052%=      5-min Rain = 0
KLE1 121440Z 17001KT 04/M05 A3042 RMK A01 T00441048  RH  051%=      5-min Rain = 0
KLE1 121441Z 19002KT 04/M05 A3042 RMK A01 T00441048  RH  051%=      5-min Rain = 0
KLE1 121442Z 22002KT 04/M05 A3042 RMK A01 T00441048  RH  051%=      5-min Rain = 0
KLE1 121443Z 23002KT 04/M05 A3042 RMK A01 T00431048  RH  051%=      5-min Rain = 0
KLE1 121444Z 23002KT 04/M05 A3042 RMK A01 T00421048  RH  052%=      5-min Rain = 0
KLE1 121445Z 21002KT 04/M05 A3042 RMK A01 T00421048  RH  052%=      5-min Rain = 0
KLE1 121446Z 23002KT 04/M05 A3042 RMK A01 T00401049  RH  052%=      5-min Rain = 0
KLE1 121447Z 24001KT 04/M05 A3042 RMK A01 T00391049  RH  053%=      5-min Rain = 0
KLE1 121448Z 21002KT 04/M05 A3042 RMK A01 T00401048  RH  053%=      5-min Rain = 0
KLE1 121449Z 21001KT 04/M05 A3042 RMK A01 T00411046  RH  053%=      5-min Rain = 0
KLE1 121450Z 19001KT 04/M05 A3042 RMK A01 T00421046  RH  053%=      5-min Rain = 0
KLE1 121451Z 19001KT 04/M05 A3042 RMK A01 T00431046  RH  052%=      5-min Rain = 0
KLE1 121452Z 18002KT 04/M05 A3042 RMK A01 T00441046  RH  052%=      5-min Rain = 0
KLE1 121453Z 14002KT 05/M05 A3042 RMK A01 T00451045  RH  052%=      5-min Rain = 0
KLE1 121454Z 13001KT 05/M05 A3042 RMK A01 T00461045  RH  052%=      5-min Rain = 0
KLE1 121455Z 18001KT 05/M04 A3042 RMK A01 T00481044  RH  052%=      5-min Rain = 0
KLE1 121456Z 15002KT 05/M04 A3042 RMK A01 T00501043  RH  051%=      5-min Rain = 0
KLE1 121457Z 15002KT 05/M04 A3042 RMK A01 T00501043  RH  051%=      5-min Rain = 0
KLE1 121458Z 14001KT 05/M04 A3042 RMK A01 T00501044  RH  051%=      5-min Rain = 0
KLE1 121459Z 13001KT 05/M04 A3042 RMK A01 T00511043  RH  050%=      5-min Rain = 0
KLE1 121500Z 16001KT 05/M04 A3042 RMK A01 T00541041  RH  050%=      5-min Rain = 0
KLE1 121501Z 15002KT 06/M04 A3042 RMK A01 T00561041  RH  050%=      5-min Rain = 0
KLE1 121502Z 14002KT 06/M04 A3042 RMK A01 T00571041  RH  049%=      5-min Rain = 0
KLE1 121503Z 12002KT 06/M04 A3042 RMK A01 T00571039  RH  050%=      5-min Rain = 0
KLE1 121504Z 12003KT 06/M04 A3042 RMK A01 T00581038  RH  050%=      5-min Rain = 0
KLE1 121505Z 11002KT 06/M04 A3042 RMK A01 T00581040  RH  049%=      5-min Rain = 0
KLE1 121506Z 09003KT 06/M04 A3042 RMK A01 T00571040  RH  050%=      5-min Rain = 0
KLE1 121507Z 11002KT 06/M04 A3042 RMK A01 T00561040  RH  050%=      5-min Rain = 0
KLE1 121508Z 10002KT 06/M04 A3042 RMK A01 T00571040  RH  050%=      5-min Rain = 0
KLE1 121509Z 12002KT 06/M04 A3042 RMK A01 T00571039  RH  050%=      5-min Rain = 0
KLE1 121510Z 12004KT 06/M04 A3042 RMK A01 T00581037  RH  050%=      5-min Rain = 0
KLE1 121511Z 13004KT 06/M04 A3042 RMK A01 T00581036  RH  051%=      5-min Rain = 0
KLE1 121512Z 15003KT 06/M04 A3042 RMK A01 T00581036  RH  051%=      5-min Rain = 0
KLE1 121513Z 13003KT 06/M04 A3042 RMK A01 T00591035  RH  051%=      5-min Rain = 0
KLE1 121514Z 14003KT 06/M04 A3042 RMK A01 T00591035  RH  051%=      5-min Rain = 0
KLE1 121515Z 14005KT 06/M04 A3042 RMK A01 T00591036  RH  051%=      5-min Rain = 0
KLE1 121516Z 14004KT 06/M04 A3042 RMK A01 T00591035  RH  051%=      5-min Rain = 0
KLE1 121517Z 14003KT 06/M04 A3042 RMK A01 T00591035  RH  051%=      5-min Rain = 0
KLE1 121518Z 15005KT 06/M04 A3042 RMK A01 T00581035  RH  051%=      5-min Rain = 0
KLE1 121519Z 15004KT 06/M04 A3042 RMK A01 T00581036  RH  051%=      5-min Rain = 0
KLE1 121520Z 13003KT 06/M04 A3042 RMK A01 T00581037  RH  051%=      5-min Rain = 0
KLE1 121521Z 14004KT 06/M04 A3042 RMK A01 T00581037  RH  051%=      5-min Rain = 0
KLE1 121522Z 13004KT 06/M04 A3042 RMK A01 T00591035  RH  051%=      5-min Rain = 0
KLE1 121523Z 13003KT 06/M04 A3042 RMK A01 T00591035  RH  051%=      5-min Rain = 0
KLE1 121524Z 16003KT 06/M04 A3042 RMK A01 T00601035  RH  050%=      5-min Rain = 0
KLE1 121525Z 14004KT 06/M04 A3042 RMK A01 T00611035  RH  050%=      5-min Rain = 0
KLE1 121526Z 14003KT 06/M03 A3042 RMK A01 T00621034  RH  050%=      5-min Rain = 0
KLE1 121527Z 15003KT 06/M04 A3042 RMK A01 T00621035  RH  050%=      5-min Rain = 0
KLE1 121528Z 15003KT 06/M04 A3042 RMK A01 T00621035  RH  050%=      5-min Rain = 0
KLE1 121529Z 16004KT 06/M04 A3042 RMK A01 T00621035  RH  050%=      5-min Rain = 0
KLE1 121530Z 15002KT 06/M04 A3042 RMK A01 T00621035  RH  050%=      5-min Rain = 0
KLE1 121531Z 13002KT 06/M04 A3042 RMK A01 T00621035  RH  050%=      5-min Rain = 0
KLE1 121532Z 13003KT 06/M03 A3042 RMK A01 T00641032  RH  050%=      5-min Rain = 0
KLE1 121533Z 13004KT 07/M03 A3042 RMK A01 T00661033  RH  049%=      5-min Rain = 0
KLE1 121534Z 14002KT 07/M03 A3042 RMK A01 T00661034  RH  049%=      5-min Rain = 0
KLE1 121535Z 12003KT 07/M03 A3042 RMK A01 T00661033  RH  049%=      5-min Rain = 0
KLE1 121536Z 14004KT 07/M03 A3043 RMK A01 T00691030  RH  049%=      5-min Rain = 0
KLE1 121537Z 13004KT 07/M03 A3043 RMK A01 T00711032  RH  048%=      5-min Rain = 0
KLE1 121538Z 14003KT 07/M03 A3042 RMK A01 T00701034  RH  048%=      5-min Rain = 0
KLE1 121539Z 12002KT 07/M03 A3042 RMK A01 T00681034  RH  048%=      5-min Rain = 0
KLE1 121540Z 13003KT 07/M03 A3042 RMK A01 T00681033  RH  048%=      5-min Rain = 0
KLE1 121541Z 18004KT 07/M03 A3042 RMK A01 T00701033  RH  048%=      5-min Rain = 0
KLE1 121542Z 18003KT 07/M03 A3042 RMK A01 T00711034  RH  047%=      5-min Rain = 0
KLE1 121543Z 15003KT 07/M03 A3042 RMK A01 T00731033  RH  047%=      5-min Rain = 0
KLE1 121544Z 18002KT 07/M03 A3042 RMK A01 T00731034  RH  046%=      5-min Rain = 0
KLE1 121545Z 18003KT 07/M04 A3042 RMK A01 T00711036  RH  046%=      5-min Rain = 0
KLE1 121546Z 17003KT 07/M04 A3042 RMK A01 T00701035  RH  047%=      5-min Rain = 0
KLE1 121547Z 17003KT 07/M04 A3042 RMK A01 T00691036  RH  047%=      5-min Rain = 0
KLE1 121548Z 17003KT 07/M04 A3042 RMK A01 T00681035  RH  048%=      5-min Rain = 0
KLE1 121549Z 18003KT 07/M03 A3042 RMK A01 T00681034  RH  048%=      5-min Rain = 0
KLE1 121550Z 20000KT 07/M03 A3042 RMK A01 T00681034  RH  048%=      5-min Rain = 0
KLE1 121551Z 09000KT 07/M03 A3042 RMK A01 T00681033  RH  049%=      5-min Rain = 0
KLE1 121552Z 21001KT 07/M03 A3043 RMK A01 T00701031  RH  048%=      5-min Rain = 0
KLE1 121553Z 19004KT 07/M03 A3043 RMK A01 T00731031  RH  048%=      5-min Rain = 0
KLE1 121554Z 17003KT 07/M03 A3043 RMK A01 T00741032  RH  047%=      5-min Rain = 0
KLE1 121555Z 20003KT 07/M03 A3043 RMK A01 T00741032  RH  047%=      5-min Rain = 0
KLE1 121556Z 22002KT 07/M03 A3043 RMK A01 T00741031  RH  047%=      5-min Rain = 0
KLE1 121557Z 20004KT 07/M03 A3043 RMK A01 T00741032  RH  047%=      5-min Rain = 0
KLE1 121558Z 18002KT 07/M03 A3043 RMK A01 T00721034  RH  047%=      5-min Rain = 0
KLE1 121559Z 19003KT 07/M03 A3043 RMK A01 T00711032  RH  048%=      5-min Rain = 0
KLE1 121600Z 19004KT 07/M03 A3043 RMK A01 T00741031  RH  047%=      5-min Rain = 0
KLE1 121601Z 20002KT 07/M03 A3043 RMK A01 T00721033  RH  047%=      5-min Rain = 0
KLE1 121602Z 16003KT 07/M03 A3043 RMK A01 T00721032  RH  048%=      5-min Rain = 0
KLE1 121603Z 16003KT 07/M03 A3043 RMK A01 T00721032  RH  047%=      5-min Rain = 0
KLE1 121604Z 17002KT 07/M03 A3043 RMK A01 T00731032  RH  047%=      5-min Rain = 0
KLE1 121605Z 14001KT 07/M03 A3043 RMK A01 T00741033  RH  047%=      5-min Rain = 0
KLE1 121606Z 13002KT 08/M03 A3043 RMK A01 T00751031  RH  047%=      5-min Rain = 0
KLE1 121607Z 14004KT 08/M03 A3043 RMK A01 T00781030  RH  046%=      5-min Rain = 0
KLE1 121608Z 16004KT 08/M03 A3043 RMK A01 T00791031  RH  046%=      5-min Rain = 0
KLE1 121609Z 18003KT 08/M03 A3043 RMK A01 T00791032  RH  045%=      5-min Rain = 0
KLE1 121610Z 15002KT 08/M03 A3043 RMK A01 T00781032  RH  045%=      5-min Rain = 0
KLE1 121611Z 21004KT 08/M03 A3043 RMK A01 T00791032  RH  045%=      5-min Rain = 0
KLE1 121612Z 23004KT 08/M03 A3043 RMK A01 T00801033  RH  045%=      5-min Rain = 0
KLE1 121613Z 21004KT 08/M03 A3043 RMK A01 T00791033  RH  045%=      5-min Rain = 0
KLE1 121614Z 18004KT 08/M03 A3043 RMK A01 T00811030  RH  045%=      5-min Rain = 0
KLE1 121615Z 17003KT 08/M03 A3043 RMK A01 T00811033  RH  045%=      5-min Rain = 0
KLE1 121616Z 21002KT 08/M03 A3043 RMK A01 T00791034  RH  045%=      5-min Rain = 0
KLE1 121617Z 23000KT 08/M03 A3043 RMK A01 T00781033  RH  045%=      5-min Rain = 0
KLE1 121618Z 29003KT 08/M03 A3042 RMK A01 T00791033  RH  045%=      5-min Rain = 0
KLE1 121619Z 29003KT 08/M03 A3042 RMK A01 T00791033  RH  045%=      5-min Rain = 0
KLE1 121620Z 30001KT 08/M03 A3043 RMK A01 T00811031  RH  045%=      5-min Rain = 0
KLE1 121621Z 24002KT 08/M03 A3043 RMK A01 T00831031  RH  045%=      5-min Rain = 0
KLE1 121622Z 22002KT 08/M03 A3043 RMK A01 T00841032  RH  044%=      5-min Rain = 0
KLE1 121623Z 21003KT 08/M03 A3043 RMK A01 T00841032  RH  044%=      5-min Rain = 0
KLE1 121624Z 20003KT 08/M03 A3043 RMK A01 T00841032  RH  044%=      5-min Rain = 0
KLE1 121625Z 28003KT 08/M03 A3043 RMK A01 T00841033  RH  043%=      5-min Rain = 0
KLE1 121626Z 26005KT 08/M03 A3043 RMK A01 T00841033  RH  043%=      5-min Rain = 0
KLE1 121627Z 25003KT 08/M03 A3042 RMK A01 T00831033  RH  044%=      5-min Rain = 0
KLE1 121628Z 24002KT 08/M03 A3042 RMK A01 T00831033  RH  044%=      5-min Rain = 0
KLE1 121629Z 25001KT 08/M03 A3042 RMK A01 T00821034  RH  044%=      5-min Rain = 0
KLE1 121630Z 27000KT 08/M03 A3042 RMK A01 T00831032  RH  044%=      5-min Rain = 0
KLE1 121631Z 16003KT 09/M03 A3042 RMK A01 T00871030  RH  044%=      5-min Rain = 0
KLE1 121632Z 16003KT 09/M03 A3042 RMK A01 T00911029  RH  043%=      5-min Rain = 0
KLE1 121633Z 20004KT 09/M03 A3042 RMK A01 T00921031  RH  042%=      5-min Rain = 0
KLE1 121634Z 19003KT 09/M03 A3042 RMK A01 T00911032  RH  042%=      5-min Rain = 0
KLE1 121635Z 21004KT 09/M03 A3042 RMK A01 T00901032  RH  042%=      5-min Rain = 0
KLE1 121636Z 23005KT 09/M03 A3042 RMK A01 T00891033  RH  042%=      5-min Rain = 0
KLE1 121637Z 25003KT 09/M03 A3042 RMK A01 T00871033  RH  043%=      5-min Rain = 0
KLE1 121638Z 25003KT 09/M03 A3042 RMK A01 T00851033  RH  043%=      5-min Rain = 0
KLE1 121639Z 25001KT 09/M03 A3042 RMK A01 T00851032  RH  043%=      5-min Rain = 0
KLE1 121640Z 22001KT 09/M03 A3042 RMK A01 T00861033  RH  043%=      5-min Rain = 0
KLE1 121641Z 29003KT 09/M03 A3042 RMK A01 T00871032  RH  043%=      5-min Rain = 0
KLE1 121642Z 30004KT 09/M03 A3042 RMK A01 T00901030  RH  043%=      5-min Rain = 0
KLE1 121643Z 31004KT 09/M03 A3042 RMK A01 T00921030  RH  042%=      5-min Rain = 0
KLE1 121644Z 29003KT 09/M03 A3042 RMK A01 T00921032  RH  042%=      5-min Rain = 0
KLE1 121645Z 31003KT 09/M03 A3041 RMK A01 T00891033  RH  042%=      5-min Rain = 0
KLE1 121646Z 34002KT 09/M03 A3041 RMK A01 T00891032  RH  043%=      5-min Rain = 0
KLE1 121647Z 33002KT 09/M03 A3041 RMK A01 T00901031  RH  042%=      5-min Rain = 0
KLE1 121648Z 34000KT 09/M03 A3041 RMK A01 T00921031  RH  042%=      5-min Rain = 0
KLE1 121649Z 07001KT 09/M03 A3041 RMK A01 T00931031  RH  042%=      5-min Rain = 0
KLE1 121650Z 11002KT 10/M03 A3041 RMK A01 T00961028  RH  042%=      5-min Rain = 0
KLE1 121651Z 12003KT 10/M03 A3041 RMK A01 T00991028  RH  041%=      5-min Rain = 0
KLE1 121652Z 12003KT 10/M03 A3041 RMK A01 T01011027  RH  040%=      5-min Rain = 0
KLE1 121653Z 13003KT 11/M03 A3041 RMK A01 T01061026  RH  040%=      5-min Rain = 0
KLE1 121654Z 12003KT 11/M03 A3041 RMK A01 T01071029  RH  038%=      5-min Rain = 0
KLE1 121655Z 11003KT 11/M03 A3041 RMK A01 T01061029  RH  039%=      5-min Rain = 0
KLE1 121656Z 10003KT 11/M03 A3041 RMK A01 T01051030  RH  039%=      5-min Rain = 0
KLE1 121657Z 04002KT 10/M03 A3041 RMK A01 T01031031  RH  039%=      5-min Rain = 0
KLE1 121658Z 05002KT 10/M03 A3041 RMK A01 T01021030  RH  039%=      5-min Rain = 0
KLE1 121659Z 08002KT 10/M03 A3041 RMK A01 T01031030  RH  039%=      5-min Rain = 0
KLE1 121700Z 08003KT 10/M03 A3041 RMK A01 T01021030  RH  039%=      5-min Rain = 0
KLE1 121701Z 12005KT 10/M03 A3041 RMK A01 T01021031  RH  039%=      5-min Rain = 0
KLE1 121702Z 12004KT 10/M03 A3041 RMK A01 T01011031  RH  039%=      5-min Rain = 0
KLE1 121703Z 10004KT 10/M03 A3041 RMK A01 T01001031  RH  040%=      5-min Rain = 0
KLE1 121704Z 08002KT 10/M03 A3041 RMK A01 T00991031  RH  040%=      5-min Rain = 0
KLE1 121705Z 04001KT 10/M03 A3041 RMK A01 T00991030  RH  040%=      5-min Rain = 0
KLE1 121706Z 13003KT 10/M03 A3041 RMK A01 T01011029  RH  040%=      5-min Rain = 0
KLE1 121707Z 13003KT 10/M03 A3041 RMK A01 T01021030  RH  040%=      5-min Rain = 0
KLE1 121708Z 15002KT 10/M03 A3041 RMK A01 T01021030  RH  039%=      5-min Rain = 0
KLE1 121709Z 14004KT 10/M03 A3041 RMK A01 T01031030  RH  039%=      5-min Rain = 0
KLE1 121710Z 13004KT 11/M03 A3041 RMK A01 T01051029  RH  039%=      5-min Rain = 0
KLE1 121711Z 12004KT 11/M03 A3041 RMK A01 T01061030  RH  038%=      5-min Rain = 0
KLE1 121712Z 13005KT 11/M03 A3041 RMK A01 T01061030  RH  038%=      5-min Rain = 0
KLE1 121713Z 12005KT 11/M03 A304 RMK A01 T01051030  RH  039%=      5-min Rain = 0
KLE1 121714Z 11005KT 11/M03 A304 RMK A01 T01061030  RH  038%=      5-min Rain = 0
KLE1 121715Z 12004KT 11/M03 A304 RMK A01 T01051030  RH  038%=      5-min Rain = 0
KLE1 121716Z 10002KT 11/M03 A304 RMK A01 T01071028  RH  039%=      5-min Rain = 0
KLE1 121717Z 12003KT 11/M03 A304 RMK A01 T01091029  RH  038%=      5-min Rain = 0
KLE1 121718Z 12007KT 11/M03 A304 RMK A01 T01091027  RH  038%=      5-min Rain = 0
KLE1 121719Z 12005KT 11/M03 A304 RMK A01 T01121026  RH  038%=      5-min Rain = 0
KLE1 121720Z 13004KT 12/M03 A304 RMK A01 T01161025  RH  037%=      5-min Rain = 0
KLE1 121721Z 10002KT 12/M03 A304 RMK A01 T01171028  RH  036%=      5-min Rain = 0
KLE1 121722Z 08004KT 11/M03 A304 RMK A01 T01141031  RH  036%=      5-min Rain = 0
KLE1 121723Z 13003KT 11/M03 A304 RMK A01 T01121030  RH  037%=      5-min Rain = 0
KLE1 121724Z 10003KT 11/M03 A304 RMK A01 T01101030  RH  037%=      5-min Rain = 0
KLE1 121725Z 12003KT 11/M03 A304 RMK A01 T01111028  RH  038%=      5-min Rain = 0
KLE1 121726Z 11003KT 11/M03 A304 RMK A01 T01101030  RH  037%=      5-min Rain = 0
KLE1 121727Z 09004KT 11/M03 A304 RMK A01 T01081031  RH  038%=      5-min Rain = 0
KLE1 121728Z 11007KT 11/M03 A304 RMK A01 T01091028  RH  038%=      5-min Rain = 0
KLE1 121729Z 12005KT 11/M03 A304 RMK A01 T01111029  RH  038%=      5-min Rain = 0
KLE1 121730Z 09003KT 11/M03 A3039 RMK A01 T01101029  RH  038%=      5-min Rain = 0
KLE1 121731Z 12003KT 11/M03 A3039 RMK A01 T01101028  RH  038%=      5-min Rain = 0
KLE1 121732Z 14005KT 11/M03 A3039 RMK A01 T01121028  RH  037%=      5-min Rain = 0
KLE1 121733Z 15004KT 11/M03 A3039 RMK A01 T01131030  RH  037%=      5-min Rain = 0
KLE1 121734Z 18002KT 11/M03 A3039 RMK A01 T01131030  RH  037%=      5-min Rain = 0
KLE1 121735Z 13005G10KT 11/M03 A3039 RMK A01 T01131029  RH  037%=      5-min Rain = 0
KLE1 121736Z 12007KT 11/M03 A3039 RMK A01 T01141029  RH  037%=      5-min Rain = 0
KLE1 121737Z 14009KT 11/M03 A3039 RMK A01 T01121030  RH  037%=      5-min Rain = 0
KLE1 121738Z 14008KT 11/M03 A3039 RMK A01 T01121030  RH  037%=      5-min Rain = 0
KLE1 121739Z 15007KT 11/M03 A3039 RMK A01 T01131030  RH  037%=      5-min Rain = 0
KLE1 121740Z 15006KT 11/M03 A3039 RMK A01 T01131032  RH  036%=      5-min Rain = 0
KLE1 121741Z 14004KT 11/M03 A3039 RMK A01 T01111032  RH  037%=      5-min Rain = 0
KLE1 121742Z 10003KT 11/M03 A3039 RMK A01 T01131029  RH  037%=      5-min Rain = 0
KLE1 121743Z 17005KT 11/M03 A3039 RMK A01 T01141031  RH  036%=      5-min Rain = 0
KLE1 121744Z 15007KT 11/M03 A3039 RMK A01 T01131034  RH  036%=      5-min Rain = 0
KLE1 121745Z 13004KT 11/M04 A3039 RMK A01 T01111035  RH  036%=      5-min Rain = 0
KLE1 121746Z 13003KT 11/M04 A3038 RMK A01 T01101036  RH  036%=      5-min Rain = 0
KLE1 121747Z 20002KT 11/M04 A3038 RMK A01 T01091036  RH  036%=      5-min Rain = 0
KLE1 121748Z 26002KT 11/M04 A3038 RMK A01 T01091035  RH  036%=      5-min Rain = 0
KLE1 121749Z 28002KT 11/M03 A3038 RMK A01 T01091033  RH  037%=      5-min Rain = 0
KLE1 121750Z 14002G7KT 11/M03 A3038 RMK A01 T01081032  RH  037%=      5-min Rain = 0
KLE1 121751Z 13005KT 11/M03 A3038 RMK A01 T01101029  RH  038%=      5-min Rain = 0
KLE1 121752Z 12004KT 11/M03 A3038 RMK A01 T01131028  RH  037%=      5-min Rain = 0
KLE1 121753Z 14003KT 12/M03 A3038 RMK A01 T01151028  RH  037%=      5-min Rain = 0
KLE1 121754Z 17004KT 12/M03 A3038 RMK A01 T01151029  RH  036%=      5-min Rain = 0
KLE1 121755Z 15003KT 11/M03 A3038 RMK A01 T01131032  RH  036%=      5-min Rain = 0
KLE1 121756Z 13005KT 11/M03 A3038 RMK A01 T01121030  RH  037%=      5-min Rain = 0
KLE1 121757Z 14005KT 11/M03 A3038 RMK A01 T01121031  RH  037%=      5-min Rain = 0
KLE1 121758Z 11008KT 11/M03 A3038 RMK A01 T01121029  RH  037%=      5-min Rain = 0
KLE1 121759Z 12006KT 11/M03 A3038 RMK A01 T01141029  RH  036%=      5-min Rain = 0
KLE1 121800Z 14006KT 12/M03 A3038 RMK A01 T01151030  RH  036%=      5-min Rain = 0
KLE1 121801Z 14005KT 12/M03 A3038 RMK A01 T01171028  RH  036%=      5-min Rain = 0
KLE1 121802Z 13004KT 12/M03 A3038 RMK A01 T01171031  RH  035%=      5-min Rain = 0
KLE1 121803Z 15005KT 12/M03 A3037 RMK A01 T01161030  RH  036%=      5-min Rain = 0
KLE1 121804Z 17005KT 12/M03 A3037 RMK A01 T01191027  RH  036%=      5-min Rain = 0
KLE1 121805Z 19005KT 12/M03 A3037 RMK A01 T01221029  RH  035%=      5-min Rain = 0
KLE1 121806Z 19003KT 12/M03 A3037 RMK A01 T01191032  RH  035%=      5-min Rain = 0
KLE1 121807Z 15002KT 12/M03 A3037 RMK A01 T01181031  RH  035%=      5-min Rain = 0
KLE1 121808Z 12002KT 12/M03 A3037 RMK A01 T01191031  RH  035%=      5-min Rain = 0
KLE1 121809Z 15001KT 12/M03 A3037 RMK A01 T01181032  RH  035%=      5-min Rain = 0
KLE1 121810Z 20000KT 12/M03 A3037 RMK A01 T01181031  RH  035%=      5-min Rain = 0
KLE1 121811Z 07001KT 12/M03 A3037 RMK A01 T01171031  RH  035%=      5-min Rain = 0
KLE1 121812Z 20000KT 12/M03 A3037 RMK A01 T01181031  RH  035%=      5-min Rain = 0
KLE1 121813Z 06001KT 12/M03 A3037 RMK A01 T01191030  RH  035%=      5-min Rain = 0
KLE1 121814Z 08003KT 12/M03 A3037 RMK A01 T01201028  RH  035%=      5-min Rain = 0
KLE1 121815Z 10005KT 12/M03 A3036 RMK A01 T01221028  RH  035%=      5-min Rain = 0
KLE1 121816Z 11009KT 12/M03 A3036 RMK A01 T01221026  RH  035%=      5-min Rain = 0
KLE1 121817Z 10007KT 12/M03 A3036 RMK A01 T01231027  RH  035%=      5-min Rain = 0
KLE1 121818Z 07005KT 12/M03 A3036 RMK A01 T01201029  RH  035%=      5-min Rain = 0
KLE1 121819Z 09007KT 12/M03 A3036 RMK A01 T01201027  RH  036%=      5-min Rain = 0
KLE1 121820Z 10007KT 12/M03 A3036 RMK A01 T01211028  RH  035%=      5-min Rain = 0
KLE1 121821Z 09005KT 12/M03 A3036 RMK A01 T01201029  RH  035%=      5-min Rain = 0
KLE1 121822Z 05003KT 12/M03 A3036 RMK A01 T01191029  RH  035%=      5-min Rain = 0
KLE1 121823Z 06004KT 12/M03 A3036 RMK A01 T01171030  RH  036%=      5-min Rain = 0
KLE1 121824Z 09003KT 12/M03 A3036 RMK A01 T01161030  RH  036%=      5-min Rain = 0
KLE1 121825Z 09002KT 12/M03 A3036 RMK A01 T01151029  RH  036%=      5-min Rain = 0
KLE1 121826Z 09001KT 12/M03 A3036 RMK A01 T01161030  RH  036%=      5-min Rain = 0
KLE1 121827Z 10002KT 12/M03 A3036 RMK A01 T01171029  RH  036%=      5-min Rain = 0
KLE1 121828Z 11007KT 12/M03 A3036 RMK A01 T01221026  RH  036%=      5-min Rain = 0
KLE1 121829Z 11008KT 13/M03 A3036 RMK A01 T01251028  RH  034%=      5-min Rain = 0
KLE1 121830Z 09005KT 13/M03 A3036 RMK A01 T01251028  RH  034%=      5-min Rain = 0
KLE1 121831Z 08004KT 13/M03 A3036 RMK A01 T01251029  RH  034%=      5-min Rain = 0
KLE1 121832Z 08005KT 13/M03 A3036 RMK A01 T01261028  RH  034%=      5-min Rain = 0
KLE1 121833Z 08004KT 13/M03 A3036 RMK A01 T01271029  RH  034%=      5-min Rain = 0
KLE1 121834Z 10004KT 13/M03 A3036 RMK A01 T01261030  RH  034%=      5-min Rain = 0
KLE1 121835Z 13006KT 13/M03 A3036 RMK A01 T01261029  RH  034%=      5-min Rain = 0
KLE1 121836Z 13007KT 13/M03 A3036 RMK A01 T01261030  RH  034%=      5-min Rain = 0
KLE1 121837Z 12006KT 12/M03 A3036 RMK A01 T01241031  RH  034%=      5-min Rain = 0
KLE1 121838Z 10004KT 12/M03 A3035 RMK A01 T01221032  RH  034%=      5-min Rain = 0
KLE1 121839Z 09005KT 12/M03 A3035 RMK A01 T01221030  RH  034%=      5-min Rain = 0
KLE1 121840Z 08004KT 12/M03 A3035 RMK A01 T01241030  RH  034%=      5-min Rain = 0
KLE1 121841Z 11003KT 12/M03 A3035 RMK A01 T01241032  RH  034%=      5-min Rain = 0
KLE1 121842Z 11005KT 12/M03 A3035 RMK A01 T01221032  RH  034%=      5-min Rain = 0
KLE1 121843Z 10002KT 12/M03 A3035 RMK A01 T01201032  RH  034%=      5-min Rain = 0
KLE1 121844Z 18006KT 12/M03 A3035 RMK A01 T01201030  RH  035%=      5-min Rain = 0
KLE1 121845Z 15005KT 12/M03 A3035 RMK A01 T01221030  RH  035%=      5-min Rain = 0
KLE1 121846Z 14007KT 13/M03 A3035 RMK A01 T01251029  RH  034%=      5-min Rain = 0
KLE1 121847Z 16007KT 13/M03 A3035 RMK A01 T01291028  RH  034%=      5-min Rain = 0
KLE1 121848Z 16006KT 13/M03 A3035 RMK A01 T01291030  RH  033%=      5-min Rain = 0
KLE1 121849Z 16005KT 13/M03 A3035 RMK A01 T01281031  RH  033%=      5-min Rain = 0
KLE1 121850Z 17002KT 13/M03 A3035 RMK A01 T01271031  RH  033%=      5-min Rain = 0
KLE1 121851Z 17004G10KT 13/M03 A3035 RMK A01 T01281031  RH  033%=      5-min Rain = 0
KLE1 121852Z 19004KT 13/M03 A3035 RMK A01 T01281032  RH  033%=      5-min Rain = 0
KLE1 121853Z 20003KT 13/M03 A3035 RMK A01 T01261033  RH  033%=      5-min Rain = 0
KLE1 121854Z 17004KT 13/M03 A3035 RMK A01 T01281029  RH  033%=      5-min Rain = 0
KLE1 121855Z 13004KT 13/M03 A3035 RMK A01 T01331027  RH  033%=      5-min Rain = 0
KLE1 121856Z 11004KT 13/M03 A3035 RMK A01 T01321030  RH  032%=      5-min Rain = 0
KLE1 121857Z 11006KT 13/M03 A3035 RMK A01 T01311030  RH  033%=      5-min Rain = 0
KLE1 121858Z 09006KT 13/M03 A3035 RMK A01 T01311029  RH  033%=      5-min Rain = 0
KLE1 121859Z 11007KT 13/M03 A3034 RMK A01 T01311030  RH  033%=      5-min Rain = 0
KLE1 121900Z 13005KT 13/M03 A3034 RMK A01 T01301031  RH  033%=      5-min Rain = 0
KLE1 121901Z 14002KT 13/M03 A3034 RMK A01 T01281031  RH  033%=      5-min Rain = 0
KLE1 121902Z 03001KT 13/M03 A3034 RMK A01 T01271031  RH  033%=      5-min Rain = 0
KLE1 121903Z 08007KT 13/M03 A3034 RMK A01 T01281029  RH  033%=      5-min Rain = 0
KLE1 121904Z 06004KT 13/M03 A3034 RMK A01 T01291032  RH  032%=      5-min Rain = 0
KLE1 121905Z 05004KT 13/M03 A3034 RMK A01 T01281030  RH  033%=      5-min Rain = 0
KLE1 121906Z 01003KT 13/M03 A3034 RMK A01 T01291031  RH  033%=      5-min Rain = 0
KLE1 121907Z 02004KT 13/M03 A3034 RMK A01 T01291031  RH  033%=      5-min Rain = 0
KLE1 121908Z 07003KT 13/M03 A3034 RMK A01 T01291032  RH  033%=      5-min Rain = 0
KLE1 121909Z 14006KT 13/M03 A3034 RMK A01 T01311029  RH  033%=      5-min Rain = 0
KLE1 121910Z 14005KT 13/M03 A3034 RMK A01 T01341030  RH  032%=      5-min Rain = 0
KLE1 121911Z 21004KT 13/M03 A3034 RMK A01 T01331032  RH  032%=      5-min Rain = 0
KLE1 121912Z 18003KT 13/M03 A3034 RMK A01 T01321032  RH  032%=      5-min Rain = 0
KLE1 121913Z 14003KT 13/M03 A3034 RMK A01 T01311032  RH  032%=      5-min Rain = 0
KLE1 121914Z 11007KT 13/M03 A3034 RMK A01 T01321031  RH  032%=      5-min Rain = 0
KLE1 121915Z 11008KT 14/M03 A3034 RMK A01 T01361030  RH  032%=      5-min Rain = 0
KLE1 121916Z 10003KT 14/M03 A3034 RMK A01 T01351033  RH  031%=      5-min Rain = 0
KLE1 121917Z 12005KT 13/M03 A3033 RMK A01 T01321033  RH  032%=      5-min Rain = 0
KLE1 121918Z 14007KT 14/M03 A3033 RMK A01 T01351029  RH  032%=      5-min Rain = 0
KLE1 121919Z 13008KT 14/M03 A3033 RMK A01 T01391029  RH  031%=      5-min Rain = 0
KLE1 121920Z 11005KT 14/M03 A3033 RMK A01 T01381032  RH  031%=      5-min Rain = 0
KLE1 121921Z 10006KT 14/M03 A3033 RMK A01 T01351033  RH  031%=      5-min Rain = 0
KLE1 121922Z 13006KT 14/M03 A3033 RMK A01 T01351031  RH  031%=      5-min Rain = 0
KLE1 121923Z 14002KT 14/M03 A3033 RMK A01 T01351033  RH  031%=      5-min Rain = 0
KLE1 121924Z 03002KT 13/M03 A3033 RMK A01 T01331033  RH  031%=      5-min Rain = 0
KLE1 121925Z 14006KT 13/M03 A3033 RMK A01 T01331032  RH  032%=      5-min Rain = 0
KLE1 121926Z 14006KT 14/M03 A3033 RMK A01 T01351032  RH  031%=      5-min Rain = 0
KLE1 121927Z 13006KT 14/M03 A3033 RMK A01 T01361032  RH  031%=      5-min Rain = 0
KLE1 121928Z 12004KT 14/M03 A3033 RMK A01 T01381030  RH  031%=      5-min Rain = 0
KLE1 121929Z 12002KT 14/M03 A3033 RMK A01 T01391032  RH  030%=      5-min Rain = 0
KLE1 121930Z 07002KT 14/M03 A3033 RMK A01 T01361034  RH  031%=      5-min Rain = 0
KLE1 121931Z 10004KT 14/M03 A3033 RMK A01 T01351033  RH  031%=      5-min Rain = 0
KLE1 121932Z 12005KT 14/M03 A3033 RMK A01 T01371031  RH  031%=      5-min Rain = 0
KLE1 121933Z 16003KT 14/M03 A3033 RMK A01 T01371033  RH  030%=      5-min Rain = 0
KLE1 121934Z 18003KT 14/M03 A3032 RMK A01 T01361034  RH  031%=      5-min Rain = 0
KLE1 121935Z 17005KT 14/M03 A3032 RMK A01 T01381031  RH  031%=      5-min Rain = 0
KLE1 121936Z 15005KT 14/M03 A3032 RMK A01 T01421032  RH  030%=      5-min Rain = 0
KLE1 121937Z 12007KT 14/M03 A3032 RMK A01 T01411033  RH  030%=      5-min Rain = 0
KLE1 121938Z 09004KT 14/M03 A3032 RMK A01 T01391034  RH  030%=      5-min Rain = 0
KLE1 121939Z 10006KT 14/M03 A3032 RMK A01 T01381032  RH  031%=      5-min Rain = 0
KLE1 121940Z 12005KT 14/M03 A3032 RMK A01 T01381031  RH  031%=      5-min Rain = 0
KLE1 121941Z 10003KT 14/M03 A3032 RMK A01 T01381032  RH  031%=      5-min Rain = 0
KLE1 121942Z 05003KT 14/M03 A3032 RMK A01 T01381031  RH  031%=      5-min Rain = 0
KLE1 121943Z 07006KT 14/M03 A3031 RMK A01 T01391032  RH  030%=      5-min Rain = 0
KLE1 121944Z 05006KT 14/M03 A3031 RMK A01 T01401033  RH  030%=      5-min Rain = 0
KLE1 121945Z 05006KT 14/M03 A3031 RMK A01 T01381033  RH  030%=      5-min Rain = 0
KLE1 121946Z 06007KT 14/M03 A3031 RMK A01 T01401033  RH  030%=      5-min Rain = 0
KLE1 121947Z 08004KT 14/M03 A3031 RMK A01 T01411032  RH  030%=      5-min Rain = 0
KLE1 121948Z 16006KT 14/M03 A3031 RMK A01 T01431032  RH  030%=      5-min Rain = 0
KLE1 121949Z 15004KT 14/M04 A3031 RMK A01 T01401036  RH  029%=      5-min Rain = 0
KLE1 121950Z 16002KT 14/M04 A3031 RMK A01 T01371036  RH  030%=      5-min Rain = 0
KLE1 121951Z 19001KT 14/M04 A3031 RMK A01 T01351036  RH  030%=      5-min Rain = 0
KLE1 121952Z 12002KT 14/M03 A3031 RMK A01 T01351034  RH  031%=      5-min Rain = 0
KLE1 121953Z 11005KT 14/M03 A3031 RMK A01 T01391031  RH  031%=      5-min Rain = 0
KLE1 121954Z 11005KT 14/M03 A3031 RMK A01 T01431032  RH  030%=      5-min Rain = 0
KLE1 121955Z 14008KT 14/M04 A3031 RMK A01 T01431035  RH  029%=      5-min Rain = 0
KLE1 121956Z 18008KT 14/M04 A3031 RMK A01 T01441035  RH  029%=      5-min Rain = 0
KLE1 121957Z 12005KT 14/M04 A3031 RMK A01 T01441036  RH  029%=      5-min Rain = 0
KLE1 121958Z 10005KT 14/M04 A3031 RMK A01 T01431035  RH  029%=      5-min Rain = 0
KLE1 121959Z 11004KT 14/M04 A303 RMK A01 T01411037  RH  029%=      5-min Rain = 0
KLE1 122000Z 15002KT 14/M04 A303 RMK A01 T01381037  RH  029%=      5-min Rain = 0
KLE1 122001Z 12002KT 14/M04 A303 RMK A01 T01381036  RH  030%=      5-min Rain = 0
KLE1 122002Z 07002KT 14/M04 A303 RMK A01 T01391035  RH  030%=      5-min Rain = 0
KLE1 122003Z 09006KT 14/M03 A303 RMK A01 T01411034  RH  029%=      5-min Rain = 0
KLE1 122004Z 11006KT 14/M04 A303 RMK A01 T01421036  RH  029%=      5-min Rain = 0
KLE1 122005Z 11003KT 14/M04 A303 RMK A01 T01431036  RH  029%=      5-min Rain = 0
KLE1 122006Z 04002KT 14/M04 A303 RMK A01 T01421036  RH  029%=      5-min Rain = 0
KLE1 122007Z 14005KT 14/M04 A303 RMK A01 T01411037  RH  029%=      5-min Rain = 0
KLE1 122008Z 14006KT 14/M04 A303 RMK A01 T01441035  RH  029%=      5-min Rain = 0
KLE1 122009Z 10008KT 15/M04 A303 RMK A01 T01451036  RH  028%=      5-min Rain = 0
KLE1 122010Z 08007KT 14/M04 A303 RMK A01 T01441038  RH  028%=      5-min Rain = 0
KLE1 122011Z 08006KT 14/M04 A303 RMK A01 T01431037  RH  029%=      5-min Rain = 0
KLE1 122012Z 08006KT 14/M04 A303 RMK A01 T01441036  RH  029%=      5-min Rain = 0
KLE1 122013Z 08005KT 15/M04 A303 RMK A01 T01461037  RH  028%=      5-min Rain = 0
KLE1 122014Z 06004KT 14/M04 A303 RMK A01 T01441039  RH  028%=      5-min Rain = 0
KLE1 122015Z 06005KT 14/M04 A303 RMK A01 T01431039  RH  028%=      5-min Rain = 0
KLE1 122016Z 05006KT 14/M04 A303 RMK A01 T01421039  RH  028%=      5-min Rain = 0
KLE1 122017Z 09003KT 14/M04 A303 RMK A01 T01411039  RH  028%=      5-min Rain = 0
KLE1 122018Z 00001KT 14/M04 A303 RMK A01 T01401039  RH  029%=      5-min Rain = 0
KLE1 122019Z 36004KT 14/M04 A303 RMK A01 T01411038  RH  029%=      5-min Rain = 0
KLE1 122020Z 35004KT 14/M04 A3029 RMK A01 T01411038  RH  029%=      5-min Rain = 0
KLE1 122021Z 34005KT 14/M04 A3029 RMK A01 T01411038  RH  029%=      5-min Rain = 0
KLE1 122022Z 35005KT 14/M04 A3029 RMK A01 T01431035  RH  029%=      5-min Rain = 0
KLE1 122023Z 03004KT 15/M04 A3029 RMK A01 T01471036  RH  028%=      5-min Rain = 0
KLE1 122024Z 03004KT 15/M04 A3029 RMK A01 T01471037  RH  028%=      5-min Rain = 0
KLE1 122025Z 06007KT 15/M04 A3029 RMK A01 T01471036  RH  028%=      5-min Rain = 0
KLE1 122026Z 07008KT 15/M03 A3029 RMK A01 T01501033  RH  028%=      5-min Rain = 0
KLE1 122027Z 08006KT 15/M03 A3029 RMK A01 T01511034  RH  028%=      5-min Rain = 0
KLE1 122028Z 08004KT 15/M04 A3029 RMK A01 T01471037  RH  028%=      5-min Rain = 0
KLE1 122029Z 09008KT 15/M03 A3029 RMK A01 T01461034  RH  029%=      5-min Rain = 0
KLE1 122030Z 09007KT 15/M03 A3029 RMK A01 T01511033  RH  028%=      5-min Rain = 0
KLE1 122031Z 06005KT 15/M04 A3029 RMK A01 T01481036  RH  028%=      5-min Rain = 0
KLE1 122032Z 05005KT 15/M04 A3029 RMK A01 T01461036  RH  028%=      5-min Rain = 0
KLE1 122033Z 11005KT 15/M04 A3029 RMK A01 T01461035  RH  028%=      5-min Rain = 0
KLE1 122034Z 13004KT 15/M04 A3029 RMK A01 T01481036  RH  028%=      5-min Rain = 0
KLE1 122035Z 07006KT 15/M03 A3029 RMK A01 T01481034  RH  028%=      5-min Rain = 0
KLE1 122036Z 06006KT 15/M04 A3028 RMK A01 T01491036  RH  028%=      5-min Rain = 0
KLE1 122037Z 06005KT 15/M04 A3028 RMK A01 T01481037  RH  028%=      5-min Rain = 0
KLE1 122038Z 09008KT 15/M04 A3028 RMK A01 T01481035  RH  028%=      5-min Rain = 0
KLE1 122039Z 10009KT 15/M03 A3028 RMK A01 T01521033  RH  028%=      5-min Rain = 0
KLE1 122040Z 09007KT 15/M04 A3028 RMK A01 T01511036  RH  027%=      5-min Rain = 0
KLE1 122041Z 09007KT 15/M04 A3028 RMK A01 T01511035  RH  028%=      5-min Rain = 0
KLE1 122042Z 08005KT 15/M03 A3028 RMK A01 T01521034  RH  027%=      5-min Rain = 0
KLE1 122043Z 06006KT 15/M04 A3028 RMK A01 T01531035  RH  027%=      5-min Rain = 0
KLE1 122044Z 06005KT 16/M03 A3028 RMK A01 T01551033  RH  027%=      5-min Rain = 0
KLE1 122045Z 05008KT 16/M03 A3028 RMK A01 T01571034  RH  027%=      5-min Rain = 0
KLE1 122046Z 06008KT 16/M04 A3028 RMK A01 T01561035  RH  027%=      5-min Rain = 0
KLE1 122047Z 08006KT 15/M04 A3028 RMK A01 T01541036  RH  027%=      5-min Rain = 0
KLE1 122048Z 10006KT 15/M04 A3028 RMK A01 T01521036  RH  027%=      5-min Rain = 0
KLE1 122049Z 11005KT 15/M04 A3028 RMK A01 T01511036  RH  027%=      5-min Rain = 0
KLE1 122050Z 13006KT 15/M04 A3028 RMK A01 T01511036  RH  027%=      5-min Rain = 0
KLE1 122051Z 12005KT 15/M04 A3028 RMK A01 T01501037  RH  027%=      5-min Rain = 0
KLE1 122052Z 13006KT 15/M04 A3028 RMK A01 T01491038  RH  027%=      5-min Rain = 0
KLE1 122053Z 12005KT 15/M04 A3028 RMK A01 T01491038  RH  027%=      5-min Rain = 0
KLE1 122054Z 10006KT 15/M04 A3028 RMK A01 T01491038  RH  027%=      5-min Rain = 0
KLE1 122055Z 09006KT 15/M04 A3027 RMK A01 T01511037  RH  027%=      5-min Rain = 0
KLE1 122056Z 10005KT 15/M04 A3027 RMK A01 T01511037  RH  027%=      5-min Rain = 0
KLE1 122057Z 09006KT 15/M04 A3027 RMK A01 T01511037  RH  027%=      5-min Rain = 0
KLE1 122058Z 11004KT 15/M04 A3027 RMK A01 T01511038  RH  027%=      5-min Rain = 0
KLE1 122059Z 09005KT 15/M04 A3027 RMK A01 T01501037  RH  027%=      5-min Rain = 0
KLE1 122100Z 10005KT 15/M04 A3027 RMK A01 T01521036  RH  027%=      5-min Rain = 0
KLE1 122101Z 09007KT 15/M04 A3027 RMK A01 T01531036  RH  027%=      5-min Rain = 0
KLE1 122102Z 04005KT 15/M04 A3027 RMK A01 T01521038  RH  027%=      5-min Rain = 0
KLE1 122103Z 10004KT 15/M04 A3027 RMK A01 T01501037  RH  027%=      5-min Rain = 0
KLE1 122104Z 13005KT 15/M03 A3027 RMK A01 T01521034  RH  027%=      5-min Rain = 0
KLE1 122105Z 14006KT 16/M03 A3027 RMK A01 T01571033  RH  027%=      5-min Rain = 0
KLE1 122106Z 13007KT 16/M04 A3027 RMK A01 T01581035  RH  026%=      5-min Rain = 0
KLE1 122107Z 12003KT 16/M04 A3027 RMK A01 T01571038  RH  026%=      5-min Rain = 0
KLE1 122108Z 11003KT 15/M04 A3027 RMK A01 T01531038  RH  027%=      5-min Rain = 0
KLE1 122109Z 11004KT 15/M04 A3027 RMK A01 T01521038  RH  027%=      5-min Rain = 0
KLE1 122110Z 14003KT 15/M04 A3027 RMK A01 T01511038  RH  027%=      5-min Rain = 0
KLE1 122111Z 11002KT 15/M04 A3027 RMK A01 T01501039  RH  027%=      5-min Rain = 0
KLE1 122112Z 04002KT 15/M04 A3027 RMK A01 T01491039  RH  027%=      5-min Rain = 0
KLE1 122113Z 05004KT 15/M04 A3026 RMK A01 T01491038  RH  027%=      5-min Rain = 0
KLE1 122114Z 09006KT 15/M04 A3026 RMK A01 T01511036  RH  027%=      5-min Rain = 0
KLE1 122115Z 08004KT 15/M04 A3026 RMK A01 T01531037  RH  027%=      5-min Rain = 0
KLE1 122116Z 07004KT 15/M04 A3026 RMK A01 T01521038  RH  027%=      5-min Rain = 0
KLE1 122117Z 07004KT 15/M04 A3026 RMK A01 T01531037  RH  027%=      5-min Rain = 0
KLE1 122118Z 08004KT 15/M04 A3026 RMK A01 T01541038  RH  026%=      5-min Rain = 0
KLE1 122119Z 09003KT 15/M04 A3026 RMK A01 T01531038  RH  026%=      5-min Rain = 0
KLE1 122120Z 04001KT 15/M04 A3026 RMK A01 T01521039  RH  027%=      5-min Rain = 0
KLE1 122121Z 33001KT 15/M04 A3026 RMK A01 T01511039  RH  027%=      5-min Rain = 0
KLE1 122122Z 32002KT 15/M04 A3026 RMK A01 T01501038  RH  027%=      5-min Rain = 0
KLE1 122123Z 09002KT 15/M04 A3026 RMK A01 T01521038  RH  027%=      5-min Rain = 0
KLE1 122124Z 15002KT 15/M04 A3026 RMK A01 T01541038  RH  027%=      5-min Rain = 0
KLE1 122125Z 14004KT 16/M04 A3026 RMK A01 T01561036  RH  026%=      5-min Rain = 0
KLE1 122126Z 17005KT 16/M04 A3026 RMK A01 T01581036  RH  026%=      5-min Rain = 0
KLE1 122127Z 18002KT 16/M04 A3026 RMK A01 T01571038  RH  026%=      5-min Rain = 0
KLE1 122128Z 15004KT 16/M04 A3026 RMK A01 T01581036  RH  026%=      5-min Rain = 0
KLE1 122129Z 15004KT 16/M04 A3026 RMK A01 T01581037  RH  026%=      5-min Rain = 0
KLE1 122130Z 15005KT 16/M04 A3026 RMK A01 T01601037  RH  026%=      5-min Rain = 0
KLE1 122131Z 17005KT 16/M04 A3025 RMK A01 T01611037  RH  025%=      5-min Rain = 0
KLE1 122132Z 18004KT 16/M04 A3025 RMK A01 T01601039  RH  025%=      5-min Rain = 0
KLE1 122133Z 16003KT 16/M04 A3025 RMK A01 T01581039  RH  026%=      5-min Rain = 0
KLE1 122134Z 09005KT 16/M04 A3025 RMK A01 T01581038  RH  026%=      5-min Rain = 0
KLE1 122135Z 07007KT 16/M04 A3025 RMK A01 T01601039  RH  025%=      5-min Rain = 0
KLE1 122136Z 08008KT 16/M04 A3025 RMK A01 T01591041  RH  025%=      5-min Rain = 0
KLE1 122137Z 09005KT 16/M04 A3025 RMK A01 T01581042  RH  025%=      5-min Rain = 0
KLE1 122138Z 09006G12KT 16/M04 A3025 RMK A01 T01571040  RH  026%=      5-min Rain = 0
KLE1 122139Z 10010KT 16/M04 A3025 RMK A01 T01611037  RH  025%=      5-min Rain = 0
KLE1 122140Z 11011KT 16/M04 A3025 RMK A01 T01611041  RH  025%=      5-min Rain = 0
KLE1 122141Z 09008KT 16/M04 A3025 RMK A01 T01571042  RH  025%=      5-min Rain = 0
KLE1 122142Z 09007KT 16/M04 A3025 RMK A01 T01571042  RH  025%=      5-min Rain = 0
KLE1 122143Z 08006KT 16/M04 A3025 RMK A01 T01561042  RH  025%=      5-min Rain = 0
KLE1 122144Z 09005KT 16/M04 A3025 RMK A01 T01551042  RH  026%=      5-min Rain = 0
KLE1 122145Z 05006KT 16/M04 A3025 RMK A01 T01571039  RH  026%=      5-min Rain = 0
KLE1 122146Z 06005KT 16/M04 A3025 RMK A01 T01581040  RH  025%=      5-min Rain = 0
KLE1 122147Z 04005KT 16/M04 A3025 RMK A01 T01581040  RH  025%=      5-min Rain = 0
KLE1 122148Z 06004KT 16/M04 A3024 RMK A01 T01571040  RH  026%=      5-min Rain = 0
KLE1 122149Z 05004KT 16/M04 A3024 RMK A01 T01571041  RH  025%=      5-min Rain = 0
KLE1 122150Z 07004KT 16/M04 A3024 RMK A01 T01571041  RH  025%=      5-min Rain = 0
KLE1 122151Z 07006KT 16/M04 A3024 RMK A01 T01571040  RH  026%=      5-min Rain = 0
KLE1 122152Z 07005KT 16/M04 A3024 RMK A01 T01571041  RH  025%=      5-min Rain = 0
KLE1 122153Z 05004KT 16/M04 A3024 RMK A01 T01551042  RH  026%=      5-min Rain = 0
KLE1 122154Z 06005KT 15/M04 A3024 RMK A01 T01541041  RH  026%=      5-min Rain = 0
KLE1 122155Z 09005KT 16/M04 A3024 RMK A01 T01551041  RH  026%=      5-min Rain = 0
KLE1 122156Z 11005KT 16/M04 A3024 RMK A01 T01581038  RH  026%=      5-min Rain = 0
KLE1 122157Z 11004KT 16/M04 A3024 RMK A01 T01601040  RH  025%=      5-min Rain = 0
KLE1 122158Z 11003KT 16/M04 A3024 RMK A01 T01611038  RH  025%=      5-min Rain = 0
KLE1 122159Z 11003KT 16/M04 A3024 RMK A01 T01611040  RH  025%=      5-min Rain = 0
KLE1 122200Z 07003KT 16/M04 A3024 RMK A01 T01601041  RH  025%=      5-min Rain = 0
KLE1 122201Z 10004KT 16/M04 A3023 RMK A01 T01611040  RH  025%=      5-min Rain = 0
KLE1 122202Z 10008G13KT 16/M04 A3023 RMK A01 T01611040  RH  025%=      5-min Rain = 0
KLE1 122203Z 11010KT 16/M04 A3023 RMK A01 T01611041  RH  025%=      5-min Rain = 0
KLE1 122204Z 11010KT 16/M04 A3023 RMK A01 T01601041  RH  025%=      5-min Rain = 0
KLE1 122205Z 11010KT 16/M04 A3023 RMK A01 T01591041  RH  025%=      5-min Rain = 0
KLE1 122206Z 09011KT 16/M04 A3023 RMK A01 T01581041  RH  025%=      5-min Rain = 0
KLE1 122207Z 10010KT 16/M04 A3023 RMK A01 T01591039  RH  025%=      5-min Rain = 0
KLE1 122208Z 11009KT 16/M04 A3023 RMK A01 T01601041  RH  025%=      5-min Rain = 0
KLE1 122209Z 10010KT 16/M04 A3023 RMK A01 T01591041  RH  025%=      5-min Rain = 0
KLE1 122210Z 10009KT 16/M04 A3023 RMK A01 T01611040  RH  025%=      5-min Rain = 0
KLE1 122211Z 10008KT 16/M04 A3023 RMK A01 T01631040  RH  025%=      5-min Rain = 0
KLE1 122212Z 10011KT 17/M04 A3023 RMK A01 T01651040  RH  024%=      5-min Rain = 0
KLE1 122213Z 11008KT 16/M04 A3023 RMK A01 T01631043  RH  024%=      5-min Rain = 0
KLE1 122214Z 13006KT 16/M04 A3023 RMK A01 T01601043  RH  024%=      5-min Rain = 0
KLE1 122215Z 12004KT 16/M05 A3023 RMK A01 T01571045  RH  025%=      5-min Rain = 0
KLE1 122216Z 07004KT 16/M04 A3023 RMK A01 T01551044  RH  025%=      5-min Rain = 0
KLE1 122217Z 08004KT 15/M04 A3023 RMK A01 T01541044  RH  025%=      5-min Rain = 0
KLE1 122218Z 10005KT 16/M04 A3023 RMK A01 T01551043  RH  025%=      5-min Rain = 0
KLE1 122219Z 10007KT 16/M04 A3023 RMK A01 T01571041  RH  025%=      5-min Rain = 0
KLE1 122220Z 11008KT 16/M04 A3023 RMK A01 T01581042  RH  025%=      5-min Rain = 0
KLE1 122221Z 11009KT 16/M04 A3022 RMK A01 T01591041  RH  025%=      5-min Rain = 0
KLE1 122222Z 09009KT 16/M04 A3022 RMK A01 T01611042  RH  025%=      5-min Rain = 0
KLE1 122223Z 10009KT 16/M04 A3022 RMK A01 T01611044  RH  024%=      5-min Rain = 0
KLE1 122224Z 12007KT 16/M04 A3022 RMK A01 T01591043  RH  025%=      5-min Rain = 0
KLE1 122225Z 13007KT 16/M04 A3022 RMK A01 T01591043  RH  025%=      5-min Rain = 0
KLE1 122226Z 11010KT 16/M04 A3022 RMK A01 T01581043  RH  025%=      5-min Rain = 0
KLE1 122227Z 10009G14KT 16/M04 A3022 RMK A01 T01601042  RH  025%=      5-min Rain = 0
KLE1 122228Z 08011KT 16/M04 A3022 RMK A01 T01611042  RH  024%=      5-min Rain = 0
KLE1 122229Z 10009KT 16/M04 A3022 RMK A01 T01601044  RH  024%=      5-min Rain = 0
KLE1 122230Z 10005KT 16/M04 A3022 RMK A01 T01581044  RH  025%=      5-min Rain = 0
KLE1 122231Z 07007KT 16/M04 A3022 RMK A01 T01571043  RH  025%=      5-min Rain = 0
KLE1 122232Z 08006KT 16/M04 A3022 RMK A01 T01571044  RH  025%=      5-min Rain = 0
KLE1 122233Z 09005KT 16/M05 A3022 RMK A01 T01561045  RH  025%=      5-min Rain = 0
KLE1 122234Z 09007KT 16/M05 A3022 RMK A01 T01551045  RH  025%=      5-min Rain = 0
KLE1 122235Z 10007KT 16/M04 A3022 RMK A01 T01571043  RH  025%=      5-min Rain = 0
KLE1 122236Z 08004KT 16/M04 A3022 RMK A01 T01581044  RH  025%=      5-min Rain = 0
KLE1 122237Z 08005KT 16/M05 A3022 RMK A01 T01561046  RH  024%=      5-min Rain = 0
KLE1 122238Z 08005KT 15/M05 A3022 RMK A01 T01541047  RH  025%=      5-min Rain = 0
KLE1 122239Z 10006KT 15/M05 A3022 RMK A01 T01531046  RH  025%=      5-min Rain = 0
KLE1 122240Z 11007KT 16/M04 A3022 RMK A01 T01551044  RH  025%=      5-min Rain = 0
KLE1 122241Z 11007KT 16/M04 A3022 RMK A01 T01561044  RH  025%=      5-min Rain = 0
KLE1 122242Z 09007KT 16/M04 A3022 RMK A01 T01571044  RH  025%=      5-min Rain = 0
KLE1 122243Z 08009KT 16/M05 A3022 RMK A01 T01561045  RH  025%=      5-min Rain = 0
KLE1 122244Z 09010KT 16/M05 A3022 RMK A01 T01561045  RH  025%=      5-min Rain = 0
KLE1 122245Z 09010KT 16/M05 A3022 RMK A01 T01561045  RH  025%=      5-min Rain = 0
KLE1 122246Z 10008KT 16/M05 A3022 RMK A01 T01561045  RH  025%=      5-min Rain = 0
KLE1 122247Z 10007KT 16/M05 A3022 RMK A01 T01561045  RH  025%=      5-min Rain = 0
KLE1 122248Z 09006KT 16/M04 A3022 RMK A01 T01561044  RH  025%=      5-min Rain = 0
KLE1 122249Z 07006KT 16/M04 A3021 RMK A01 T01571044  RH  025%=      5-min Rain = 0
KLE1 122250Z 08005KT 16/M05 A3021 RMK A01 T01561045  RH  025%=      5-min Rain = 0
KLE1 122251Z 09004KT 16/M04 A3021 RMK A01 T01561044  RH  025%=      5-min Rain = 0
KLE1 122252Z 08006KT 16/M05 A3021 RMK A01 T01561045  RH  025%=      5-min Rain = 0
KLE1 122253Z 09008KT 16/M04 A3021 RMK A01 T01571044  RH  025%=      5-min Rain = 0
KLE1 122254Z 09010KT 16/M04 A3021 RMK A01 T01581041  RH  025%=      5-min Rain = 0
KLE1 122255Z 09008KT 16/M04 A3021 RMK A01 T01581042  RH  025%=      5-min Rain = 0
KLE1 122256Z 09009KT 16/M04 A3021 RMK A01 T01561042  RH  025%=      5-min Rain = 0
KLE1 122257Z 10011KT 16/M04 A3021 RMK A01 T01561042  RH  025%=      5-min Rain = 0
KLE1 122258Z 08010KT 16/M04 A3021 RMK A01 T01571042  RH  025%=      5-min Rain = 0
KLE1 122259Z 09011KT 16/M04 A3021 RMK A01 T01571041  RH  025%=      5-min Rain = 0
KLE1 122300Z 09011KT 16/M04 A3021 RMK A01 T01581042  RH  025%=      5-min Rain = 0
KLE1 122301Z 10009KT 16/M04 A3021 RMK A01 T01571043  RH  025%=      5-min Rain = 0
KLE1 122302Z 10008KT 16/M04 A3021 RMK A01 T01561043  RH  025%=      5-min Rain = 0
KLE1 122303Z 09009KT 16/M04 A3021 RMK A01 T01561042  RH  025%=      5-min Rain = 0
KLE1 122304Z 10009KT 16/M04 A3021 RMK A01 T01561042  RH  025%=      5-min Rain = 0
KLE1 122305Z 10011KT 16/M04 A3021 RMK A01 T01561042  RH  025%=      5-min Rain = 0
KLE1 122306Z 10008KT 16/M04 A3021 RMK A01 T01551044  RH  025%=      5-min Rain = 0
KLE1 122307Z 09009KT 15/M04 A3021 RMK A01 T01531043  RH  026%=      5-min Rain = 0
KLE1 122308Z 08010KT 15/M04 A3021 RMK A01 T01541043  RH  025%=      5-min Rain = 0
KLE1 122309Z 08009KT 16/M04 A3021 RMK A01 T01551044  RH  025%=      5-min Rain = 0
KLE1 122310Z 08009KT 16/M04 A3021 RMK A01 T01551044  RH  025%=      5-min Rain = 0
KLE1 122311Z 08009KT 15/M04 A3021 RMK A01 T01541044  RH  025%=      5-min Rain = 0
KLE1 122312Z 09010KT 15/M04 A3021 RMK A01 T01541044  RH  025%=      5-min Rain = 0
KLE1 122313Z 10008KT 15/M04 A3021 RMK A01 T01541044  RH  025%=      5-min Rain = 0
KLE1 122314Z 11005KT 15/M05 A302 RMK A01 T01541045  RH  025%=      5-min Rain = 0
KLE1 122315Z 10004KT 15/M05 A302 RMK A01 T01541045  RH  025%=      5-min Rain = 0
KLE1 122316Z 10006KT 15/M04 A302 RMK A01 T01531044  RH  025%=      5-min Rain = 0
KLE1 122317Z 11009KT 15/M04 A302 RMK A01 T01541044  RH  025%=      5-min Rain = 0
KLE1 122318Z 11008KT 16/M05 A302 RMK A01 T01551045  RH  025%=      5-min Rain = 0
KLE1 122319Z 11009KT 15/M05 A302 RMK A01 T01541045  RH  025%=      5-min Rain = 0
KLE1 122320Z 11007KT 15/M05 A302 RMK A01 T01541045  RH  025%=      5-min Rain = 0
KLE1 122321Z 10007KT 16/M04 A302 RMK A01 T01551044  RH  025%=      5-min Rain = 0
KLE1 122322Z 10008KT 16/M05 A302 RMK A01 T01551045  RH  025%=      5-min Rain = 0
KLE1 122323Z 10007KT 16/M05 A302 RMK A01 T01551046  RH  025%=      5-min Rain = 0
KLE1 122324Z 11007KT 15/M05 A302 RMK A01 T01541046  RH  025%=      5-min Rain = 0
KLE1 122325Z 11009KT 15/M05 A302 RMK A01 T01541046  RH  025%=      5-min Rain = 0
KLE1 122326Z 12007KT 15/M05 A302 RMK A01 T01531046  RH  025%=      5-min Rain = 0
KLE1 122327Z 11006KT 15/M05 A302 RMK A01 T01531046  RH  025%=      5-min Rain = 0
KLE1 122328Z 12011KT 15/M05 A302 RMK A01 T01521045  RH  025%=      5-min Rain = 0
KLE1 122329Z 10011KT 15/M05 A302 RMK A01 T01511045  RH  026%=      5-min Rain = 0
KLE1 122330Z 10009KT 15/M04 A302 RMK A01 T01511044  RH  026%=      5-min Rain = 0
KLE1 122331Z 09009KT 15/M05 A302 RMK A01 T01511045  RH  026%=      5-min Rain = 0
KLE1 122332Z 08009KT 15/M04 A302 RMK A01 T01511044  RH  026%=      5-min Rain = 0
KLE1 122333Z 08007KT 15/M04 A302 RMK A01 T01511044  RH  026%=      5-min Rain = 0
KLE1 122334Z 08007KT 15/M05 A302 RMK A01 T01511045  RH  026%=      5-min Rain = 0
KLE1 122335Z 09008KT 15/M05 A302 RMK A01 T01511045  RH  026%=      5-min Rain = 0
KLE1 122336Z 09008KT 15/M05 A302 RMK A01 T01511045  RH  026%=      5-min Rain = 0
KLE1 122337Z 12009KT 15/M05 A302 RMK A01 T01521045  RH  025%=      5-min Rain = 0
KLE1 122338Z 11008KT 15/M05 A302 RMK A01 T01521045  RH  025%=      5-min Rain = 0
KLE1 122339Z 13010KT 15/M05 A302 RMK A01 T01521045  RH  025%=      5-min Rain = 0
KLE1 122340Z 11008KT 15/M05 A302 RMK A01 T01511046  RH  025%=      5-min Rain = 0
KLE1 122341Z 10009KT 15/M05 A302 RMK A01 T01511046  RH  025%=      5-min Rain = 0
KLE1 122342Z 10009KT 15/M05 A302 RMK A01 T01501046  RH  026%=      5-min Rain = 0
KLE1 122343Z 09009KT 15/M05 A302 RMK A01 T01491046  RH  026%=      5-min Rain = 0
KLE1 122344Z 09011KT 15/M05 A302 RMK A01 T01491046  RH  026%=      5-min Rain = 0
KLE1 122345Z 09011KT 15/M05 A302 RMK A01 T01491046  RH  026%=      5-min Rain = 0
KLE1 122346Z 10009KT 15/M05 A302 RMK A01 T01481046  RH  026%=      5-min Rain = 0
KLE1 122347Z 08009KT 15/M05 A302 RMK A01 T01461047  RH  026%=      5-min Rain = 0
KLE1 122348Z 08008KT 15/M05 A302 RMK A01 T01461047  RH  026%=      5-min Rain = 0
KLE1 122349Z 08009KT 15/M05 A302 RMK A01 T01451046  RH  026%=      5-min Rain = 0
KLE1 122350Z 10009KT 15/M05 A302 RMK A01 T01451046  RH  026%=      5-min Rain = 0
KLE1 122351Z 11008KT 15/M05 A302 RMK A01 T01461045  RH  026%=      5-min Rain = 0
KLE1 122352Z 11008KT 15/M05 A302 RMK A01 T01461045  RH  026%=      5-min Rain = 0
KLE1 122353Z 10008KT 15/M05 A302 RMK A01 T01461045  RH  026%=      5-min Rain = 0
KLE1 122354Z 10008KT 15/M05 A302 RMK A01 T01461045  RH  026%=      5-min Rain = 0
KLE1 122355Z 11011KT 15/M05 A302 RMK A01 T01461045  RH  026%=      5-min Rain = 0
KLE1 122356Z 11012KT 15/M05 A302 RMK A01 T01461045  RH  026%=      5-min Rain = 0
KLE1 122357Z 11012KT 15/M05 A302 RMK A01 T01461045  RH  026%=      5-min Rain = 0
KLE1 122358Z 11010KT 15/M05 A302 RMK A01 T01451045  RH  027%=      5-min Rain = 0
KLE1 122359Z 10009KT 14/M05 A302 RMK A01 T01441045  RH  027%=      5-min Rain = 0
KLE1 130000Z 10009KT 14/M05 A302 RMK A01 T01441045  RH  027%=      5-min Rain = 0
KLE1 130001Z 09011KT 14/M05 A302 RMK A01 T01431045  RH  027%=      5-min Rain = 0
KLE1 130002Z 10010KT 14/M05 A302 RMK A01 T01431045  RH  027%=      5-min Rain = 0
KLE1 130003Z 10010KT 14/M05 A302 RMK A01 T01431045  RH  027%=      5-min Rain = 0
KLE1 130004Z 10011KT 14/M05 A302 RMK A01 T01431045  RH  027%=      5-min Rain = 0
KLE1 130005Z 09012KT 14/M05 A302 RMK A01 T01431045  RH  027%=      5-min Rain = 0
KLE1 130006Z 10010KT 14/M05 A302 RMK A01 T01431045  RH  027%=      5-min Rain = 0
KLE1 130007Z 10011KT 14/M05 A302 RMK A01 T01421046  RH  027%=      5-min Rain = 0
KLE1 130008Z 09012KT 14/M05 A302 RMK A01 T01421046  RH  027%=      5-min Rain = 0
KLE1 130009Z 10012KT 14/M05 A302 RMK A01 T01421046  RH  027%=      5-min Rain = 0
KLE1 130010Z 09010KT 14/M05 A302 RMK A01 T01421046  RH  027%=      5-min Rain = 0
KLE1 130011Z 09011KT 14/M05 A302 RMK A01 T01411046  RH  027%=      5-min Rain = 0
KLE1 130012Z 09011KT 14/M05 A302 RMK A01 T01411047  RH  027%=      5-min Rain = 0
KLE1 130013Z 10010KT 14/M05 A302 RMK A01 T01401046  RH  027%=      5-min Rain = 0
KLE1 130014Z 10011KT 14/M05 A302 RMK A01 T01401047  RH  027%=      5-min Rain = 0
KLE1 130015Z 10011KT 14/M05 A302 RMK A01 T01391046  RH  027%=      5-min Rain = 0
KLE1 130016Z 11012KT 14/M05 A302 RMK A01 T01391047  RH  027%=      5-min Rain = 0
KLE1 130017Z 10011KT 14/M05 A302 RMK A01 T01381047  RH  027%=      5-min Rain = 0
KLE1 130018Z 10010KT 14/M05 A302 RMK A01 T01381047  RH  027%=      5-min Rain = 0
KLE1 130019Z 09011KT 14/M05 A302 RMK A01 T01371047  RH  028%=      5-min Rain = 0
KLE1 130020Z 10011KT 14/M05 A302 RMK A01 T01371047  RH  028%=      5-min Rain = 0
KLE1 130021Z 09010KT 14/M05 A302 RMK A01 T01361047  RH  028%=      5-min Rain = 0
KLE1 130022Z 08010KT 14/M05 A302 RMK A01 T01361048  RH  028%=      5-min Rain = 0
KLE1 130023Z 09010KT 14/M05 A302 RMK A01 T01351047  RH  028%=      5-min Rain = 0
KLE1 130024Z 09009KT 13/M05 A302 RMK A01 T01341048  RH  028%=      5-min Rain = 0
KLE1 130025Z 09010KT 13/M05 A302 RMK A01 T01331048  RH  028%=      5-min Rain = 0
KLE1 130026Z 10010KT 13/M05 A302 RMK A01 T01331048  RH  028%=      5-min Rain = 0
KLE1 130027Z 10011KT 13/M05 A302 RMK A01 T01321048  RH  028%=      5-min Rain = 0
KLE1 130028Z 10011KT 13/M05 A302 RMK A01 T01321048  RH  028%=      5-min Rain = 0
KLE1 130029Z 10010KT 13/M05 A302 RMK A01 T01321048  RH  028%=      5-min Rain = 0
KLE1 130030Z 10010KT 13/M05 A302 RMK A01 T01311049  RH  028%=      5-min Rain = 0
KLE1 130031Z 09009KT 13/M05 A302 RMK A01 T01301049  RH  028%=      5-min Rain = 0
KLE1 130032Z 09010KT 13/M05 A302 RMK A01 T01291049  RH  028%=      5-min Rain = 0
KLE1 130033Z 09010KT 13/M05 A302 RMK A01 T01291049  RH  029%=      5-min Rain = 0
KLE1 130034Z 09010KT 13/M05 A3021 RMK A01 T01281049  RH  029%=      5-min Rain = 0
KLE1 130035Z 09009KT 13/M05 A3021 RMK A01 T01281049  RH  029%=      5-min Rain = 0
KLE1 130036Z 09009KT 13/M05 A3021 RMK A01 T01271050  RH  029%=      5-min Rain = 0
KLE1 130037Z 09010KT 13/M05 A3021 RMK A01 T01271049  RH  029%=      5-min Rain = 0
KLE1 130038Z 09009KT 13/M05 A3021 RMK A01 T01261050  RH  029%=      5-min Rain = 0
KLE1 130039Z 09009KT 13/M05 A3021 RMK A01 T01251051  RH  029%=      5-min Rain = 0
KLE1 130040Z 09009KT 13/M05 A3021 RMK A01 T01251051  RH  029%=      5-min Rain = 0
KLE1 130041Z 09010KT 13/M05 A3021 RMK A01 T01251051  RH  029%=      5-min Rain = 0
KLE1 130042Z 09009KT 12/M05 A3021 RMK A01 T01241051  RH  029%=      5-min Rain = 0
KLE1 130043Z 09009KT 12/M05 A3021 RMK A01 T01241051  RH  029%=      5-min Rain = 0
KLE1 130044Z 10009KT 12/M05 A3021 RMK A01 T01231051  RH  029%=      5-min Rain = 0
KLE1 130045Z 10010KT 12/M05 A3021 RMK A01 T01231051  RH  029%=      5-min Rain = 0
KLE1 130046Z 10010KT 12/M05 A3021 RMK A01 T01231051  RH  029%=      5-min Rain = 0
KLE1 130047Z 10010KT 12/M05 A3021 RMK A01 T01231051  RH  029%=      5-min Rain = 0
KLE1 130048Z 10010KT 12/M05 A3021 RMK A01 T01231051  RH  029%=      5-min Rain = 0
KLE1 130049Z 10009KT 12/M05 A3021 RMK A01 T01221052  RH  029%=      5-min Rain = 0
KLE1 130050Z 10010KT 12/M05 A3021 RMK A01 T01211052  RH  029%=      5-min Rain = 0
KLE1 130051Z 10010KT 12/M05 A3021 RMK A01 T01211052  RH  030%=      5-min Rain = 0
KLE1 130052Z 10010KT 12/M05 A3021 RMK A01 T01211052  RH  030%=      5-min Rain = 0
KLE1 130053Z 10009KT 12/M05 A3021 RMK A01 T01201052  RH  030%=      5-min Rain = 0
KLE1 130054Z 10009KT 12/M05 A3021 RMK A01 T01201052  RH  030%=      5-min Rain = 0
KLE1 130055Z 10009KT 12/M05 A3021 RMK A01 T01191053  RH  030%=      5-min Rain = 0
KLE1 130056Z 10009KT 12/M05 A3021 RMK A01 T01181053  RH  030%=      5-min Rain = 0
KLE1 130057Z 10009KT 12/M05 A3021 RMK A01 T01161053  RH  030%=      5-min Rain = 0
KLE1 130058Z 10009KT 12/M05 A3021 RMK A01 T01161053  RH  030%=      5-min Rain = 0
KLE1 130059Z 10008KT 12/M05 A3021 RMK A01 T01151054  RH  030%=      5-min Rain = 0
KLE1 130100Z 10009KT 11/M05 A3021 RMK A01 T01141054  RH  030%=      5-min Rain = 0
KLE1 130101Z 10008KT 11/M05 A3021 RMK A01 T01131054  RH  030%=      5-min Rain = 0
KLE1 130102Z 10009KT 11/M06 A3021 RMK A01 T01121055  RH  030%=      5-min Rain = 0
KLE1 130103Z 10009KT 11/M06 A3021 RMK A01 T01121055  RH  031%=      5-min Rain = 0
KLE1 130104Z 10010KT 11/M06 A3021 RMK A01 T01121055  RH  031%=      5-min Rain = 0
KLE1 130105Z 10009KT 11/M05 A3021 RMK A01 T01121054  RH  031%=      5-min Rain = 0
KLE1 130106Z 10009KT 11/M05 A3022 RMK A01 T01121054  RH  031%=      5-min Rain = 0
KLE1 130107Z 10009KT 11/M06 A3022 RMK A01 T01121055  RH  031%=      5-min Rain = 0
KLE1 130108Z 10009KT 11/M06 A3022 RMK A01 T01111055  RH  031%=      5-min Rain = 0
KLE1 130109Z 09009KT 11/M06 A3022 RMK A01 T01101056  RH  031%=      5-min Rain = 0
KLE1 130110Z 09009KT 11/M06 A3022 RMK A01 T01091056  RH  031%=      5-min Rain = 0
KLE1 130111Z 10009KT 11/M06 A3022 RMK A01 T01081056  RH  031%=      5-min Rain = 0
KLE1 130112Z 10009KT 11/M06 A3022 RMK A01 T01081056  RH  031%=      5-min Rain = 0
KLE1 130113Z 09009KT 11/M06 A3022 RMK A01 T01071056  RH  031%=      5-min Rain = 0
KLE1 130114Z 09009KT 11/M06 A3022 RMK A01 T01071057  RH  031%=      5-min Rain = 0
KLE1 130115Z 09009KT 11/M06 A3022 RMK A01 T01061057  RH  031%=      5-min Rain = 0
KLE1 130116Z 09009KT 10/M06 A3022 RMK A01 T01041058  RH  032%=      5-min Rain = 0
KLE1 130117Z 10009KT 10/M06 A3022 RMK A01 T01031058  RH  032%=      5-min Rain = 0
KLE1 130118Z 10009KT 10/M06 A3022 RMK A01 T01031058  RH  032%=      5-min Rain = 0
KLE1 130119Z 10009KT 10/M06 A3022 RMK A01 T01011058  RH  032%=      5-min Rain = 0
KLE1 130120Z 10009KT 10/M06 A3022 RMK A01 T01011058  RH  032%=      5-min Rain = 0
KLE1 130121Z 10009KT 10/M06 A3022 RMK A01 T01011058  RH  032%=      5-min Rain = 0
KLE1 130122Z 10009KT 10/M06 A3022 RMK A01 T01011058  RH  032%=      5-min Rain = 0
KLE1 130123Z 10009KT 10/M06 A3022 RMK A01 T01011058  RH  032%=      5-min Rain = 0
KLE1 130124Z 10009KT 10/M06 A3022 RMK A01 T01011058  RH  032%=      5-min Rain = 0
KLE1 130125Z 10009KT 10/M06 A3022 RMK A01 T01001059  RH  032%=      5-min Rain = 0
KLE1 130126Z 10009KT 10/M06 A3022 RMK A01 T01001059  RH  032%=      5-min Rain = 0
KLE1 130127Z 10009KT 10/M06 A3022 RMK A01 T01001059  RH  032%=      5-min Rain = 0
KLE1 130128Z 10009KT 10/M06 A3022 RMK A01 T00991059  RH  032%=      5-min Rain = 0
KLE1 130129Z 10009KT 10/M06 A3022 RMK A01 T00981060  RH  032%=      5-min Rain = 0
KLE1 130130Z 10009KT 10/M06 A3022 RMK A01 T00971060  RH  033%=      5-min Rain = 0
KLE1 130131Z 10009KT 10/M06 A3022 RMK A01 T00971059  RH  033%=      5-min Rain = 0
KLE1 130132Z 10009KT 10/M06 A3022 RMK A01 T00961059  RH  033%=      5-min Rain = 0
KLE1 130133Z 10009KT 10/M06 A3022 RMK A01 T00971059  RH  033%=      5-min Rain = 0
KLE1 130134Z 10009KT 10/M06 A3022 RMK A01 T00971059  RH  033%=      5-min Rain = 0
KLE1 130135Z 10009KT 10/M06 A3022 RMK A01 T00961060  RH  033%=      5-min Rain = 0
KLE1 130136Z 10009KT 10/M06 A3022 RMK A01 T00951060  RH  033%=      5-min Rain = 0
KLE1 130137Z 10009KT 10/M06 A3022 RMK A01 T00951059  RH  033%=      5-min Rain = 0
KLE1 130138Z 10009KT 10/M06 A3022 RMK A01 T00951059  RH  033%=      5-min Rain = 0
KLE1 130139Z 10009KT 09/M06 A3022 RMK A01 T00941060  RH  033%=      5-min Rain = 0
KLE1 130140Z 10009KT 09/M06 A3022 RMK A01 T00941060  RH  033%=      5-min Rain = 0
KLE1 130141Z 10009KT 10/M06 A3022 RMK A01 T00951059  RH  033%=      5-min Rain = 0
KLE1 130142Z 10009KT 10/M06 A3022 RMK A01 T00951059  RH  033%=      5-min Rain = 0
KLE1 130143Z 10009KT 09/M06 A3022 RMK A01 T00941059  RH  033%=      5-min Rain = 0
KLE1 130144Z 10009KT 09/M06 A3022 RMK A01 T00941059  RH  033%=      5-min Rain = 0
KLE1 130145Z 10009KT 09/M06 A3022 RMK A01 T00941060  RH  033%=      5-min Rain = 0
KLE1 130146Z 10009KT 09/M06 A3022 RMK A01 T00941060  RH  033%=      5-min Rain = 0
KLE1 130147Z 10009KT 09/M06 A3022 RMK A01 T00931060  RH  033%=      5-min Rain = 0
KLE1 130148Z 10008KT 09/M06 A3022 RMK A01 T00931060  RH  033%=      5-min Rain = 0
KLE1 130149Z 10008KT 09/M06 A3022 RMK A01 T00921060  RH  033%=      5-min Rain = 0
KLE1 130150Z 10008KT 09/M06 A3023 RMK A01 T00911061  RH  034%=      5-min Rain = 0
KLE1 130151Z 10009KT 09/M06 A3023 RMK A01 T00911061  RH  034%=      5-min Rain = 0
KLE1 130152Z 10009KT 09/M06 A3023 RMK A01 T00901061  RH  034%=      5-min Rain = 0
KLE1 130153Z 10008KT 09/M06 A3023 RMK A01 T00891061  RH  034%=      5-min Rain = 0
KLE1 130154Z 10008KT 09/M06 A3023 RMK A01 T00891061  RH  034%=      5-min Rain = 0
KLE1 130155Z 10008KT 09/M06 A3023 RMK A01 T00891061  RH  034%=      5-min Rain = 0
KLE1 130156Z 10008KT 09/M06 A3023 RMK A01 T00891061  RH  034%=      5-min Rain = 0
KLE1 130157Z 10008KT 09/M06 A3023 RMK A01 T00891061  RH  034%=      5-min Rain = 0
KLE1 130158Z 10008KT 09/M06 A3023 RMK A01 T00891060  RH  034%=      5-min Rain = 0
KLE1 130159Z 10008KT 09/M06 A3023 RMK A01 T00881061  RH  034%=      5-min Rain = 0
KLE1 130200Z 10008KT 09/M06 A3023 RMK A01 T00881061  RH  034%=      5-min Rain = 0
KLE1 130201Z 10008KT 09/M06 A3023 RMK A01 T00881061  RH  034%=      5-min Rain = 0
KLE1 130202Z 10008KT 09/M06 A3023 RMK A01 T00881061  RH  034%=      5-min Rain = 0
KLE1 130203Z 10009KT 09/M06 A3023 RMK A01 T00871061  RH  034%=      5-min Rain = 0
KLE1 130204Z 10009KT 09/M06 A3023 RMK A01 T00871061  RH  034%=      5-min Rain = 0
KLE1 130205Z 10009KT 09/M06 A3023 RMK A01 T00871061  RH  035%=      5-min Rain = 0
KLE1 130206Z 10009KT 09/M06 A3023 RMK A01 T00871061  RH  035%=      5-min Rain = 0
KLE1 130207Z 10009KT 09/M06 A3023 RMK A01 T00871061  RH  035%=      5-min Rain = 0
KLE1 130208Z 10009KT 09/M06 A3023 RMK A01 T00861061  RH  035%=      5-min Rain = 0
KLE1 130209Z 10009KT 09/M06 A3023 RMK A01 T00861062  RH  035%=      5-min Rain = 0
KLE1 130210Z 10008KT 09/M06 A3023 RMK A01 T00861062  RH  035%=      5-min Rain = 0
KLE1 130211Z 10008KT 09/M06 A3023 RMK A01 T00851062  RH  035%=      5-min Rain = 0
KLE1 130212Z 10008KT 09/M06 A3023 RMK A01 T00851062  RH  035%=      5-min Rain = 0
KLE1 130213Z 10008KT 08/M06 A3023 RMK A01 T00841063  RH  035%=      5-min Rain = 0
KLE1 130214Z 10008KT 08/M06 A3023 RMK A01 T00841063  RH  035%=      5-min Rain = 0
KLE1 130215Z 10008KT 08/M06 A3023 RMK A01 T00831063  RH  035%=      5-min Rain = 0
KLE1 130216Z 11008KT 08/M06 A3023 RMK A01 T00831062  RH  035%=      5-min Rain = 0
KLE1 130217Z 11008KT 08/M06 A3023 RMK A01 T00831062  RH  035%=      5-min Rain = 0
KLE1 130218Z 11008KT 08/M06 A3023 RMK A01 T00821063  RH  035%=      5-min Rain = 0
KLE1 130219Z 11008KT 08/M06 A3024 RMK A01 T00821063  RH  035%=      5-min Rain = 0
KLE1 130220Z 11008KT 08/M06 A3024 RMK A01 T00821062  RH  035%=      5-min Rain = 0
KLE1 130221Z 11008KT 08/M06 A3024 RMK A01 T00811062  RH  036%=      5-min Rain = 0
KLE1 130222Z 11008KT 08/M06 A3024 RMK A01 T00811062  RH  036%=      5-min Rain = 0
KLE1 130223Z 11008KT 08/M06 A3024 RMK A01 T00801062  RH  036%=      5-min Rain = 0
KLE1 130224Z 11008KT 08/M06 A3024 RMK A01 T00801062  RH  036%=      5-min Rain = 0
KLE1 130225Z 11008KT 08/M06 A3024 RMK A01 T00801062  RH  036%=      5-min Rain = 0
KLE1 130226Z 11008KT 08/M06 A3024 RMK A01 T00791063  RH  036%=      5-min Rain = 0
KLE1 130227Z 11008KT 08/M06 A3024 RMK A01 T00781063  RH  036%=      5-min Rain = 0
KLE1 130228Z 12008KT 08/M06 A3024 RMK A01 T00771063  RH  036%=      5-min Rain = 0
KLE1 130229Z 12008KT 08/M06 A3024 RMK A01 T00771063  RH  036%=      5-min Rain = 0
KLE1 130230Z 12008KT 08/M06 A3024 RMK A01 T00771063  RH  036%=      5-min Rain = 0
KLE1 130231Z 12008KT 08/M06 A3024 RMK A01 T00771063  RH  037%=      5-min Rain = 0
KLE1 130232Z 11008KT 08/M06 A3024 RMK A01 T00771062  RH  037%=      5-min Rain = 0
KLE1 130233Z 12008KT 08/M06 A3024 RMK A01 T00771062  RH  037%=      5-min Rain = 0
KLE1 130234Z 12008KT 08/M06 A3024 RMK A01 T00781061  RH  037%=      5-min Rain = 0
KLE1 130235Z 12008KT 08/M06 A3024 RMK A01 T00791061  RH  036%=      5-min Rain = 0
KLE1 130236Z 12008KT 08/M06 A3024 RMK A01 T00791062  RH  036%=      5-min Rain = 0
KLE1 130237Z 12008KT 08/M06 A3024 RMK A01 T00791062  RH  036%=      5-min Rain = 0
KLE1 130238Z 12009KT 08/M06 A3024 RMK A01 T00791062  RH  036%=      5-min Rain = 0
KLE1 130239Z 12008KT 08/M06 A3024 RMK A01 T00781062  RH  036%=      5-min Rain = 0
KLE1 130240Z 11008KT 08/M06 A3024 RMK A01 T00781062  RH  036%=      5-min Rain = 0
KLE1 130241Z 11008KT 08/M06 A3024 RMK A01 T00781062  RH  036%=      5-min Rain = 0
KLE1 130242Z 11008KT 08/M06 A3024 RMK A01 T00771062  RH  037%=      5-min Rain = 0
KLE1 130243Z 11008KT 08/M06 A3024 RMK A01 T00771062  RH  037%=      5-min Rain = 0
KLE1 130244Z 11008KT 08/M06 A3024 RMK A01 T00761062  RH  037%=      5-min Rain = 0
KLE1 130245Z 11008KT 08/M06 A3024 RMK A01 T00761062  RH  037%=      5-min Rain = 0
KLE1 130246Z 11008KT 08/M06 A3024 RMK A01 T00761062  RH  037%=      5-min Rain = 0
KLE1 130247Z 11008KT 08/M06 A3024 RMK A01 T00751062  RH  037%=      5-min Rain = 0
KLE1 130248Z 11008KT 08/M06 A3024 RMK A01 T00751062  RH  037%=      5-min Rain = 0
KLE1 130249Z 11007KT 07/M06 A3024 RMK A01 T00741062  RH  037%=      5-min Rain = 0
KLE1 130250Z 11007KT 07/M06 A3024 RMK A01 T00731063  RH  037%=      5-min Rain = 0
KLE1 130251Z 11007KT 07/M06 A3024 RMK A01 T00721063  RH  037%=      5-min Rain = 0
KLE1 130252Z 11007KT 07/M06 A3024 RMK A01 T00711064  RH  038%=      5-min Rain = 0
KLE1 130253Z 11007KT 07/M06 A3024 RMK A01 T00701064  RH  038%=      5-min Rain = 0
KLE1 130254Z 11007KT 07/M06 A3024 RMK A01 T00701064  RH  038%=      5-min Rain = 0
KLE1 130255Z 12007KT 07/M06 A3024 RMK A01 T00701064  RH  038%=      5-min Rain = 0
KLE1 130256Z 12007KT 07/M06 A3024 RMK A01 T00691064  RH  038%=      5-min Rain = 0
KLE1 130257Z 11007KT 07/M06 A3024 RMK A01 T00691064  RH  038%=      5-min Rain = 0
KLE1 130258Z 11007KT 07/M06 A3024 RMK A01 T00681064  RH  038%=      5-min Rain = 0
KLE1 130259Z 11007KT 07/M06 A3024 RMK A01 T00681064  RH  038%=      5-min Rain = 0
KLE1 130300Z 12007KT 07/M06 A3024 RMK A01 T00681064  RH  039%=      5-min Rain = 0
KLE1 130301Z 12007KT 07/M06 A3024 RMK A01 T00671064  RH  039%=      5-min Rain = 0
KLE1 130302Z 12007KT 07/M06 A3025 RMK A01 T00671064  RH  039%=      5-min Rain = 0
KLE1 130303Z 12007KT 07/M06 A3025 RMK A01 T00671064  RH  039%=      5-min Rain = 0
KLE1 130304Z 12008KT 07/M06 A3025 RMK A01 T00671064  RH  039%=      5-min Rain = 0
KLE1 130305Z 12008KT 07/M06 A3025 RMK A01 T00661064  RH  039%=      5-min Rain = 0
KLE1 130306Z 12008KT 07/M06 A3025 RMK A01 T00661064  RH  039%=      5-min Rain = 0
KLE1 130307Z 12008KT 07/M06 A3025 RMK A01 T00661063  RH  039%=      5-min Rain = 0
KLE1 130308Z 12008KT 07/M06 A3025 RMK A01 T00661064  RH  039%=      5-min Rain = 0
KLE1 130309Z 12008KT 07/M06 A3025 RMK A01 T00661063  RH  039%=      5-min Rain = 0
KLE1 130310Z 11007KT 07/M06 A3025 RMK A01 T00661063  RH  039%=      5-min Rain = 0
KLE1 130311Z 11007KT 07/M06 A3025 RMK A01 T00661064  RH  039%=      5-min Rain = 0
KLE1 130312Z 11006KT 07/M07 A3025 RMK A01 T00651065  RH  039%=      5-min Rain = 0
KLE1 130313Z 11006KT 06/M07 A3025 RMK A01 T00641065  RH  039%=      5-min Rain = 0
KLE1 130314Z 11006KT 06/M07 A3025 RMK A01 T00631066  RH  039%=      5-min Rain = 0
KLE1 130315Z 11006KT 06/M07 A3025 RMK A01 T00631066  RH  039%=      5-min Rain = 0
KLE1 130316Z 10006KT 06/M07 A3024 RMK A01 T00631065  RH  039%=      5-min Rain = 0
KLE1 130317Z 10006KT 06/M07 A3025 RMK A01 T00621065  RH  039%=      5-min Rain = 0
KLE1 130318Z 10006KT 06/M07 A3025 RMK A01 T00621065  RH  040%=      5-min Rain = 0
KLE1 130319Z 10007KT 06/M07 A3025 RMK A01 T00621065  RH  040%=      5-min Rain = 0
KLE1 130320Z 10007KT 06/M06 A3025 RMK A01 T00621064  RH  040%=      5-min Rain = 0
KLE1 130321Z 10007KT 06/M06 A3025 RMK A01 T00621064  RH  040%=      5-min Rain = 0
KLE1 130322Z 10006KT 06/M07 A3025 RMK A01 T00611065  RH  040%=      5-min Rain = 0
KLE1 130323Z 10007KT 06/M07 A3025 RMK A01 T00611065  RH  040%=      5-min Rain = 0
KLE1 130324Z 09006KT 06/M07 A3025 RMK A01 T00601066  RH  040%=      5-min Rain = 0
KLE1 130325Z 10006KT 06/M07 A3025 RMK A01 T00591066  RH  040%=      5-min Rain = 0
KLE1 130326Z 10006KT 06/M07 A3025 RMK A01 T00591066  RH  040%=      5-min Rain = 0
KLE1 130327Z 10006KT 06/M07 A3025 RMK A01 T00591066  RH  040%=      5-min Rain = 0
KLE1 130328Z 10006KT 06/M07 A3025 RMK A01 T00591066  RH  040%=      5-min Rain = 0
KLE1 130329Z 10006KT 06/M07 A3025 RMK A01 T00591066  RH  040%=      5-min Rain = 0
KLE1 130330Z 10006KT 06/M07 A3025 RMK A01 T00591066  RH  040%=      5-min Rain = 0
KLE1 130331Z 11006KT 06/M07 A3025 RMK A01 T00601065  RH  040%=      5-min Rain = 0
KLE1 130332Z 11006KT 06/M07 A3025 RMK A01 T00591066  RH  040%=      5-min Rain = 0
KLE1 130333Z 11006KT 06/M07 A3025 RMK A01 T00591065  RH  040%=      5-min Rain = 0
KLE1 130334Z 11006KT 06/M07 A3025 RMK A01 T00591066  RH  040%=      5-min Rain = 0
KLE1 130335Z 11006KT 06/M07 A3025 RMK A01 T00591066  RH  040%=      5-min Rain = 0
KLE1 130336Z 11006KT 06/M07 A3025 RMK A01 T00581065  RH  041%=      5-min Rain = 0
KLE1 130337Z 11006KT 06/M07 A3025 RMK A01 T00581065  RH  041%=      5-min Rain = 0
KLE1 130338Z 11006KT 06/M07 A3025 RMK A01 T00581065  RH  041%=      5-min Rain = 0
KLE1 130339Z 11006KT 06/M07 A3025 RMK A01 T00581065  RH  041%=      5-min Rain = 0
KLE1 130340Z 11006KT 06/M07 A3025 RMK A01 T00581065  RH  041%=      5-min Rain = 0
KLE1 130341Z 11007KT 06/M07 A3025 RMK A01 T00581065  RH  041%=      5-min Rain = 0
KLE1 130342Z 11007KT 06/M06 A3025 RMK A01 T00581064  RH  041%=      5-min Rain = 0
KLE1 130343Z 11007KT 06/M06 A3025 RMK A01 T00581064  RH  041%=      5-min Rain = 0
KLE1 130344Z 11007KT 06/M07 A3025 RMK A01 T00581065  RH  041%=      5-min Rain = 0
KLE1 130345Z 10007KT 06/M06 A3025 RMK A01 T00581064  RH  041%=      5-min Rain = 0
KLE1 130346Z 10006KT 06/M06 A3025 RMK A01 T00591064  RH  041%=      5-min Rain = 0
KLE1 130347Z 10006KT 06/M06 A3025 RMK A01 T00581064  RH  041%=      5-min Rain = 0
KLE1 130348Z 10007KT 06/M06 A3025 RMK A01 T00581064  RH  041%=      5-min Rain = 0
KLE1 130349Z 10007KT 06/M06 A3025 RMK A01 T00571064  RH  041%=      5-min Rain = 0
KLE1 130350Z 10007KT 06/M07 A3025 RMK A01 T00571065  RH  041%=      5-min Rain = 0
KLE1 130351Z 10007KT 06/M07 A3025 RMK A01 T00561065  RH  041%=      5-min Rain = 0
KLE1 130352Z 10006KT 06/M06 A3025 RMK A01 T00561064  RH  042%=      5-min Rain = 0
KLE1 130353Z 10007KT 06/M06 A3025 RMK A01 T00561064  RH  042%=      5-min Rain = 0
KLE1 130354Z 10007KT 06/M06 A3025 RMK A01 T00561064  RH  042%=      5-min Rain = 0
KLE1 130355Z 10007KT 06/M07 A3025 RMK A01 T00551065  RH  042%=      5-min Rain = 0
KLE1 130356Z 10007KT 06/M06 A3025 RMK A01 T00551064  RH  042%=      5-min Rain = 0
KLE1 130357Z 10006KT 06/M06 A3025 RMK A01 T00551064  RH  042%=      5-min Rain = 0
KLE1 130358Z 10006KT 06/M07 A3025 RMK A01 T00551065  RH  042%=      5-min Rain = 0
KLE1 130359Z 10006KT 06/M07 A3025 RMK A01 T00551065  RH  042%=      5-min Rain = 0
KLE1 130400Z 10006KT 06/M07 A3025 RMK A01 T00551065  RH  042%=      5-min Rain = 0
KLE1 130401Z 10006KT 06/M06 A3025 RMK A01 T00551064  RH  042%=      5-min Rain = 0
KLE1 130402Z 11006KT 06/M06 A3025 RMK A01 T00551064  RH  042%=      5-min Rain = 0
KLE1 130403Z 11006KT 06/M06 A3025 RMK A01 T00561063  RH  042%=      5-min Rain = 0
KLE1 130404Z 11006KT 06/M06 A3025 RMK A01 T00561063  RH  042%=      5-min Rain = 0
KLE1 130405Z 11006KT 06/M06 A3025 RMK A01 T00571063  RH  042%=      5-min Rain = 0
KLE1 130406Z 11006KT 06/M06 A3025 RMK A01 T00571063  RH  042%=      5-min Rain = 0
KLE1 130407Z 11006KT 06/M06 A3025 RMK A01 T00571063  RH  042%=      5-min Rain = 0
KLE1 130408Z 11007KT 06/M06 A3025 RMK A01 T00571064  RH  042%=      5-min Rain = 0
KLE1 130409Z 11006KT 06/M06 A3025 RMK A01 T00571063  RH  042%=      5-min Rain = 0
KLE1 130410Z 11006KT 06/M06 A3025 RMK A01 T00581063  RH  042%=      5-min Rain = 0
KLE1 130411Z 11007KT 06/M06 A3025 RMK A01 T00571063  RH  042%=      5-min Rain = 0
KLE1 130412Z 11007KT 06/M06 A3025 RMK A01 T00571063  RH  042%=      5-min Rain = 0
KLE1 130413Z 11007KT 06/M06 A3025 RMK A01 T00571063  RH  042%=      5-min Rain = 0
KLE1 130414Z 12007KT 06/M06 A3025 RMK A01 T00571063  RH  042%=      5-min Rain = 0
KLE1 130415Z 12007KT 06/M06 A3025 RMK A01 T00571062  RH  042%=      5-min Rain = 0
KLE1 130416Z 12007KT 06/M06 A3025 RMK A01 T00571063  RH  042%=      5-min Rain = 0
KLE1 130417Z 12007KT 06/M06 A3025 RMK A01 T00571062  RH  042%=      5-min Rain = 0
KLE1 130418Z 12007KT 06/M06 A3025 RMK A01 T00571062  RH  042%=      5-min Rain = 0
KLE1 130419Z 12006KT 06/M06 A3025 RMK A01 T00561062  RH  042%=      5-min Rain = 0
KLE1 130420Z 12006KT 06/M06 A3025 RMK A01 T00561063  RH  042%=      5-min Rain = 0
KLE1 130421Z 12006KT 06/M06 A3025 RMK A01 T00561063  RH  042%=      5-min Rain = 0
KLE1 130422Z 12006KT 06/M06 A3025 RMK A01 T00551062  RH  042%=      5-min Rain = 0
KLE1 130423Z 12006KT 06/M06 A3025 RMK A01 T00561061  RH  043%=      5-min Rain = 0
KLE1 130424Z 12006KT 06/M06 A3025 RMK A01 T00561061  RH  043%=      5-min Rain = 0
KLE1 130425Z 12006KT 06/M06 A3025 RMK A01 T00561061  RH  043%=      5-min Rain = 0
KLE1 130426Z 12006KT 06/M06 A3025 RMK A01 T00561060  RH  043%=      5-min Rain = 0
KLE1 130427Z 12006KT 06/M06 A3025 RMK A01 T00561060  RH  043%=      5-min Rain = 0
KLE1 130428Z 12006KT 06/M06 A3025 RMK A01 T00561060  RH  043%=      5-min Rain = 0
KLE1 130429Z 13006KT 06/M06 A3025 RMK A01 T00571060  RH  043%=      5-min Rain = 0
KLE1 130430Z 12006KT 06/M06 A3025 RMK A01 T00571059  RH  043%=      5-min Rain = 0
KLE1 130431Z 12006KT 06/M06 A3025 RMK A01 T00561060  RH  043%=      5-min Rain = 0
KLE1 130432Z 12007KT 06/M06 A3025 RMK A01 T00561059  RH  043%=      5-min Rain = 0
KLE1 130433Z 12006KT 06/M06 A3025 RMK A01 T00561060  RH  043%=      5-min Rain = 0
KLE1 130434Z 12006KT 06/M06 A3025 RMK A01 T00551060  RH  043%=      5-min Rain = 0
KLE1 130435Z 12006KT 06/M06 A3025 RMK A01 T00551060  RH  044%=      5-min Rain = 0
KLE1 130436Z 11006KT 05/M06 A3025 RMK A01 T00541060  RH  044%=      5-min Rain = 0
KLE1 130437Z 11006KT 05/M06 A3025 RMK A01 T00541060  RH  044%=      5-min Rain = 0
KLE1 130438Z 11006KT 05/M06 A3025 RMK A01 T00541060  RH  044%=      5-min Rain = 0
KLE1 130439Z 10006KT 05/M06 A3025 RMK A01 T00531060  RH  044%=      5-min Rain = 0
KLE1 130440Z 10006KT 05/M06 A3025 RMK A01 T00521061  RH  044%=      5-min Rain = 0
KLE1 130441Z 10005KT 05/M06 A3025 RMK A01 T00511062  RH  044%=      5-min Rain = 0
KLE1 130442Z 10006KT 05/M06 A3025 RMK A01 T00511062  RH  044%=      5-min Rain = 0
KLE1 130443Z 10006KT 05/M06 A3025 RMK A01 T00511062  RH  044%=      5-min Rain = 0
KLE1 130444Z 10006KT 05/M06 A3025 RMK A01 T00511061  RH  044%=      5-min Rain = 0
KLE1 130445Z 10006KT 05/M06 A3025 RMK A01 T00511061  RH  044%=      5-min Rain = 0
KLE1 130446Z 10005KT 05/M06 A3025 RMK A01 T00511062  RH  044%=      5-min Rain = 0
KLE1 130447Z 10005KT 05/M06 A3025 RMK A01 T00511062  RH  044%=      5-min Rain = 0
KLE1 130448Z 10005KT 05/M06 A3025 RMK A01 T00511062  RH  044%=      5-min Rain = 0
KLE1 130449Z 10005KT 05/M06 A3025 RMK A01 T00511062  RH  044%=      5-min Rain = 0
KLE1 130450Z 10005KT 05/M06 A3025 RMK A01 T00511062  RH  044%=      5-min Rain = 0
KLE1 130451Z 10006KT 05/M06 A3025 RMK A01 T00511062  RH  044%=      5-min Rain = 0
KLE1 130452Z 10005KT 05/M06 A3025 RMK A01 T00501062  RH  044%=      5-min Rain = 0
KLE1 130453Z 10005KT 05/M06 A3025 RMK A01 T00491063  RH  044%=      5-min Rain = 0
KLE1 130454Z 10005KT 05/M06 A3025 RMK A01 T00481064  RH  044%=      5-min Rain = 0
KLE1 130455Z 10005KT 05/M06 A3025 RMK A01 T00481064  RH  044%=      5-min Rain = 0
KLE1 130456Z 10005KT 05/M06 A3025 RMK A01 T00481063  RH  044%=      5-min Rain = 0
KLE1 130457Z 10005KT 05/M06 A3025 RMK A01 T00491062  RH  044%=      5-min Rain = 0
KLE1 130458Z 10005KT 05/M06 A3025 RMK A01 T00491062  RH  044%=      5-min Rain = 0
KLE1 130459Z 10005KT 05/M06 A3025 RMK A01 T00501061  RH  045%=      5-min Rain = 0

Page generated in 0.124 seconds.